<?xml version="1.0" encoding="UTF-8" standalone="no" ?>
<gpx xmlns="http://www.topografix.com/GPX/1/1" xmlns:xsi="http://www.w3.org/2001/XMLSchema-instance" xsi:schemaLocation="http://www.topografix.com/GPX/1/1 http://www.topografix.com/GPX/1/1/gpx.xsd" version="1.1" creator="VisuGPX - https://www.visugpx.com">
  <metadata>
    <name>SICILE - PEDESTRE - Îles Éoliennes - Stromboli - Ascension du volcan.</name>
    <desc><![CDATA[Randonnée encadrée]]></desc>
  </metadata>
  <trk>
    <name><![CDATA[ACTIVE LOG]]></name>
    <trkseg>
      <trkpt lat="38.8025" lon="15.23799">
        <ele>59.739136</ele>
        <time>2013-09-11T14:08:17Z</time>
      </trkpt>
      <trkpt lat="38.80251" lon="15.23798">
        <ele>59.739136</ele>
        <time>2013-09-11T14:08:19Z</time>
      </trkpt>
      <trkpt lat="38.80252" lon="15.23797">
        <ele>59.258423</ele>
        <time>2013-09-11T14:08:20Z</time>
      </trkpt>
      <trkpt lat="38.80266" lon="15.23797">
        <ele>59.739136</ele>
        <time>2013-09-11T14:08:35Z</time>
      </trkpt>
      <trkpt lat="38.80275" lon="15.23795">
        <ele>61.661743</ele>
        <time>2013-09-11T14:08:45Z</time>
      </trkpt>
      <trkpt lat="38.80277" lon="15.23788">
        <ele>64.065063</ele>
        <time>2013-09-11T14:08:58Z</time>
      </trkpt>
      <trkpt lat="38.80275" lon="15.23784">
        <ele>65.50708</ele>
        <time>2013-09-11T14:09:04Z</time>
      </trkpt>
      <trkpt lat="38.80274" lon="15.23775">
        <ele>66.468262</ele>
        <time>2013-09-11T14:09:21Z</time>
      </trkpt>
      <trkpt lat="38.80273" lon="15.23774">
        <ele>66.948975</ele>
        <time>2013-09-11T14:09:49Z</time>
      </trkpt>
      <trkpt lat="38.80267" lon="15.23759">
        <ele>68.390869</ele>
        <time>2013-09-11T14:10:04Z</time>
      </trkpt>
      <trkpt lat="38.80261" lon="15.23737">
        <ele>69.832886</ele>
        <time>2013-09-11T14:10:24Z</time>
      </trkpt>
      <trkpt lat="38.80255" lon="15.23719">
        <ele>71.755493</ele>
        <time>2013-09-11T14:10:40Z</time>
      </trkpt>
      <trkpt lat="38.80252" lon="15.23701">
        <ele>72.716919</ele>
        <time>2013-09-11T14:10:55Z</time>
      </trkpt>
      <trkpt lat="38.80247" lon="15.23691">
        <ele>72.716919</ele>
        <time>2013-09-11T14:11:06Z</time>
      </trkpt>
      <trkpt lat="38.80233" lon="15.23662">
        <ele>73.678223</ele>
        <time>2013-09-11T14:11:29Z</time>
      </trkpt>
      <trkpt lat="38.80226" lon="15.23643">
        <ele>74.639526</ele>
        <time>2013-09-11T14:11:44Z</time>
      </trkpt>
      <trkpt lat="38.80216" lon="15.2362">
        <ele>77.042847</ele>
        <time>2013-09-11T14:12:04Z</time>
      </trkpt>
      <trkpt lat="38.80214" lon="15.23613">
        <ele>77.523438</ele>
        <time>2013-09-11T14:12:10Z</time>
      </trkpt>
      <trkpt lat="38.80212" lon="15.23608">
        <ele>78.004028</ele>
        <time>2013-09-11T14:12:14Z</time>
      </trkpt>
      <trkpt lat="38.80203" lon="15.23583">
        <ele>79.446045</ele>
        <time>2013-09-11T14:12:35Z</time>
      </trkpt>
      <trkpt lat="38.80194" lon="15.23558">
        <ele>82.330078</ele>
        <time>2013-09-11T14:12:57Z</time>
      </trkpt>
      <trkpt lat="38.80183" lon="15.23531">
        <ele>82.810791</ele>
        <time>2013-09-11T14:13:19Z</time>
      </trkpt>
      <trkpt lat="38.80174" lon="15.23512">
        <ele>84.252686</ele>
        <time>2013-09-11T14:13:36Z</time>
      </trkpt>
      <trkpt lat="38.80167" lon="15.23491">
        <ele>85.69458</ele>
        <time>2013-09-11T14:13:54Z</time>
      </trkpt>
      <trkpt lat="38.80159" lon="15.23469">
        <ele>88.578735</ele>
        <time>2013-09-11T14:14:15Z</time>
      </trkpt>
      <trkpt lat="38.80151" lon="15.23451">
        <ele>90.02063</ele>
        <time>2013-09-11T14:14:34Z</time>
      </trkpt>
      <trkpt lat="38.80145" lon="15.23432">
        <ele>92.904541</ele>
        <time>2013-09-11T14:14:52Z</time>
      </trkpt>
      <trkpt lat="38.80139" lon="15.23416">
        <ele>95.307739</ele>
        <time>2013-09-11T14:15:09Z</time>
      </trkpt>
      <trkpt lat="38.80133" lon="15.23398">
        <ele>97.711182</ele>
        <time>2013-09-11T14:15:27Z</time>
      </trkpt>
      <trkpt lat="38.80127" lon="15.2338">
        <ele>100.595093</ele>
        <time>2013-09-11T14:15:47Z</time>
      </trkpt>
      <trkpt lat="38.80125" lon="15.23374">
        <ele>102.5177</ele>
        <time>2013-09-11T14:15:53Z</time>
      </trkpt>
      <trkpt lat="38.80128" lon="15.23357">
        <ele>103.479004</ele>
        <time>2013-09-11T14:16:11Z</time>
      </trkpt>
      <trkpt lat="38.80128" lon="15.23344">
        <ele>106.363037</ele>
        <time>2013-09-11T14:16:26Z</time>
      </trkpt>
      <trkpt lat="38.80125" lon="15.23328">
        <ele>109.246948</ele>
        <time>2013-09-11T14:16:44Z</time>
      </trkpt>
      <trkpt lat="38.80121" lon="15.2331">
        <ele>110.688843</ele>
        <time>2013-09-11T14:17:03Z</time>
      </trkpt>
      <trkpt lat="38.80115" lon="15.23293">
        <ele>113.092285</ele>
        <time>2013-09-11T14:17:21Z</time>
      </trkpt>
      <trkpt lat="38.80106" lon="15.23277">
        <ele>115.976196</ele>
        <time>2013-09-11T14:17:41Z</time>
      </trkpt>
      <trkpt lat="38.801" lon="15.23266">
        <ele>117.418213</ele>
        <time>2013-09-11T14:18:01Z</time>
      </trkpt>
      <trkpt lat="38.80099" lon="15.23264">
        <ele>117.418213</ele>
        <time>2013-09-11T14:18:31Z</time>
      </trkpt>
      <trkpt lat="38.80092" lon="15.23247">
        <ele>119.34082</ele>
        <time>2013-09-11T14:18:46Z</time>
      </trkpt>
      <trkpt lat="38.8009" lon="15.23237">
        <ele>118.860107</ele>
        <time>2013-09-11T14:19:03Z</time>
      </trkpt>
      <trkpt lat="38.80092" lon="15.23241">
        <ele>119.34082</ele>
        <time>2013-09-11T14:19:18Z</time>
      </trkpt>
      <trkpt lat="38.80093" lon="15.2324">
        <ele>118.379395</ele>
        <time>2013-09-11T14:20:27Z</time>
      </trkpt>
      <trkpt lat="38.80095" lon="15.2324">
        <ele>117.898804</ele>
        <time>2013-09-11T14:20:48Z</time>
      </trkpt>
      <trkpt lat="38.80095" lon="15.23239">
        <ele>117.898804</ele>
        <time>2013-09-11T14:23:16Z</time>
      </trkpt>
      <trkpt lat="38.80089" lon="15.23233">
        <ele>119.821411</ele>
        <time>2013-09-11T14:23:49Z</time>
      </trkpt>
      <trkpt lat="38.80086" lon="15.23228">
        <ele>121.26355</ele>
        <time>2013-09-11T14:24:06Z</time>
      </trkpt>
      <trkpt lat="38.80085" lon="15.23223">
        <ele>122.224731</ele>
        <time>2013-09-11T14:24:23Z</time>
      </trkpt>
      <trkpt lat="38.80087" lon="15.23216">
        <ele>124.147339</ele>
        <time>2013-09-11T14:24:33Z</time>
      </trkpt>
      <trkpt lat="38.80091" lon="15.23213">
        <ele>125.589355</ele>
        <time>2013-09-11T14:24:38Z</time>
      </trkpt>
      <trkpt lat="38.801" lon="15.23202">
        <ele>125.589355</ele>
        <time>2013-09-11T14:25:00Z</time>
      </trkpt>
      <trkpt lat="38.80101" lon="15.23194">
        <ele>126.550659</ele>
        <time>2013-09-11T14:25:16Z</time>
      </trkpt>
      <trkpt lat="38.801" lon="15.2319">
        <ele>127.992554</ele>
        <time>2013-09-11T14:25:29Z</time>
      </trkpt>
      <trkpt lat="38.80103" lon="15.23183">
        <ele>130.876709</ele>
        <time>2013-09-11T14:25:46Z</time>
      </trkpt>
      <trkpt lat="38.80113" lon="15.23179">
        <ele>132.318604</ele>
        <time>2013-09-11T14:26:02Z</time>
      </trkpt>
      <trkpt lat="38.80117" lon="15.2318">
        <ele>132.318604</ele>
        <time>2013-09-11T14:26:06Z</time>
      </trkpt>
      <trkpt lat="38.80125" lon="15.23176">
        <ele>131.3573</ele>
        <time>2013-09-11T14:26:14Z</time>
      </trkpt>
      <trkpt lat="38.80133" lon="15.23167">
        <ele>133.279907</ele>
        <time>2013-09-11T14:26:25Z</time>
      </trkpt>
      <trkpt lat="38.80138" lon="15.23165">
        <ele>132.318604</ele>
        <time>2013-09-11T14:26:29Z</time>
      </trkpt>
      <trkpt lat="38.80146" lon="15.23158">
        <ele>131.3573</ele>
        <time>2013-09-11T14:26:38Z</time>
      </trkpt>
      <trkpt lat="38.80164" lon="15.23143">
        <ele>130.395996</ele>
        <time>2013-09-11T14:26:55Z</time>
      </trkpt>
      <trkpt lat="38.80181" lon="15.23129">
        <ele>131.837891</ele>
        <time>2013-09-11T14:27:14Z</time>
      </trkpt>
      <trkpt lat="38.80184" lon="15.23122">
        <ele>132.799316</ele>
        <time>2013-09-11T14:27:22Z</time>
      </trkpt>
      <trkpt lat="38.80184" lon="15.23112">
        <ele>133.279907</ele>
        <time>2013-09-11T14:27:29Z</time>
      </trkpt>
      <trkpt lat="38.80187" lon="15.23094">
        <ele>130.876709</ele>
        <time>2013-09-11T14:27:42Z</time>
      </trkpt>
      <trkpt lat="38.80189" lon="15.23087">
        <ele>130.395996</ele>
        <time>2013-09-11T14:27:47Z</time>
      </trkpt>
      <trkpt lat="38.80213" lon="15.23067">
        <ele>127.511963</ele>
        <time>2013-09-11T14:28:11Z</time>
      </trkpt>
      <trkpt lat="38.8023" lon="15.23068">
        <ele>128.473389</ele>
        <time>2013-09-11T14:28:31Z</time>
      </trkpt>
      <trkpt lat="38.80229" lon="15.23056">
        <ele>130.876709</ele>
        <time>2013-09-11T14:28:45Z</time>
      </trkpt>
      <trkpt lat="38.80243" lon="15.23046">
        <ele>132.799316</ele>
        <time>2013-09-11T14:29:03Z</time>
      </trkpt>
      <trkpt lat="38.80246" lon="15.23044">
        <ele>132.799316</ele>
        <time>2013-09-11T14:29:06Z</time>
      </trkpt>
      <trkpt lat="38.80246" lon="15.23027">
        <ele>134.721924</ele>
        <time>2013-09-11T14:29:24Z</time>
      </trkpt>
      <trkpt lat="38.80245" lon="15.23015">
        <ele>136.16394</ele>
        <time>2013-09-11T14:29:41Z</time>
      </trkpt>
      <trkpt lat="38.80242" lon="15.23012">
        <ele>137.125244</ele>
        <time>2013-09-11T14:29:46Z</time>
      </trkpt>
      <trkpt lat="38.80227" lon="15.2301">
        <ele>139.047852</ele>
        <time>2013-09-11T14:30:04Z</time>
      </trkpt>
      <trkpt lat="38.80218" lon="15.23005">
        <ele>140.970459</ele>
        <time>2013-09-11T14:30:19Z</time>
      </trkpt>
      <trkpt lat="38.8021" lon="15.22999">
        <ele>143.85437</ele>
        <time>2013-09-11T14:30:35Z</time>
      </trkpt>
      <trkpt lat="38.80205" lon="15.22992">
        <ele>145.7771</ele>
        <time>2013-09-11T14:30:53Z</time>
      </trkpt>
      <trkpt lat="38.8022" lon="15.22983">
        <ele>146.738403</ele>
        <time>2013-09-11T14:31:13Z</time>
      </trkpt>
      <trkpt lat="38.80226" lon="15.22968">
        <ele>148.661011</ele>
        <time>2013-09-11T14:31:31Z</time>
      </trkpt>
      <trkpt lat="38.80228" lon="15.22951">
        <ele>150.103027</ele>
        <time>2013-09-11T14:31:49Z</time>
      </trkpt>
      <trkpt lat="38.8023" lon="15.22935">
        <ele>152.506348</ele>
        <time>2013-09-11T14:32:08Z</time>
      </trkpt>
      <trkpt lat="38.80242" lon="15.22923">
        <ele>152.986938</ele>
        <time>2013-09-11T14:32:27Z</time>
      </trkpt>
      <trkpt lat="38.80251" lon="15.22912">
        <ele>154.428955</ele>
        <time>2013-09-11T14:32:45Z</time>
      </trkpt>
      <trkpt lat="38.80256" lon="15.22904">
        <ele>156.832153</ele>
        <time>2013-09-11T14:33:01Z</time>
      </trkpt>
      <trkpt lat="38.8026" lon="15.22899">
        <ele>158.27417</ele>
        <time>2013-09-11T14:33:18Z</time>
      </trkpt>
      <trkpt lat="38.80264" lon="15.2289">
        <ele>159.716187</ele>
        <time>2013-09-11T14:33:39Z</time>
      </trkpt>
      <trkpt lat="38.80262" lon="15.22887">
        <ele>160.67749</ele>
        <time>2013-09-11T14:34:00Z</time>
      </trkpt>
      <trkpt lat="38.80257" lon="15.22887">
        <ele>163.561523</ele>
        <time>2013-09-11T14:34:14Z</time>
      </trkpt>
      <trkpt lat="38.80243" lon="15.22894">
        <ele>164.522705</ele>
        <time>2013-09-11T14:34:31Z</time>
      </trkpt>
      <trkpt lat="38.80235" lon="15.22901">
        <ele>166.445313</ele>
        <time>2013-09-11T14:34:52Z</time>
      </trkpt>
      <trkpt lat="38.80235" lon="15.229">
        <ele>166.445313</ele>
        <time>2013-09-11T14:34:53Z</time>
      </trkpt>
      <trkpt lat="38.80247" lon="15.22883">
        <ele>169.810059</ele>
        <time>2013-09-11T14:35:15Z</time>
      </trkpt>
      <trkpt lat="38.80256" lon="15.22863">
        <ele>171.732666</ele>
        <time>2013-09-11T14:35:36Z</time>
      </trkpt>
      <trkpt lat="38.80264" lon="15.22847">
        <ele>174.135864</ele>
        <time>2013-09-11T14:35:55Z</time>
      </trkpt>
      <trkpt lat="38.80279" lon="15.22831">
        <ele>175.09729</ele>
        <time>2013-09-11T14:36:16Z</time>
      </trkpt>
      <trkpt lat="38.80297" lon="15.22817">
        <ele>176.058594</ele>
        <time>2013-09-11T14:36:37Z</time>
      </trkpt>
      <trkpt lat="38.80305" lon="15.22812">
        <ele>176.058594</ele>
        <time>2013-09-11T14:36:54Z</time>
      </trkpt>
      <trkpt lat="38.80309" lon="15.2281">
        <ele>178.461914</ele>
        <time>2013-09-11T14:37:14Z</time>
      </trkpt>
      <trkpt lat="38.80306" lon="15.22805">
        <ele>178.942627</ele>
        <time>2013-09-11T14:37:33Z</time>
      </trkpt>
      <trkpt lat="38.80302" lon="15.22798">
        <ele>181.826416</ele>
        <time>2013-09-11T14:37:47Z</time>
      </trkpt>
      <trkpt lat="38.80298" lon="15.22794">
        <ele>183.749023</ele>
        <time>2013-09-11T14:38:03Z</time>
      </trkpt>
      <trkpt lat="38.80297" lon="15.22789">
        <ele>184.710571</ele>
        <time>2013-09-11T14:38:17Z</time>
      </trkpt>
      <trkpt lat="38.80293" lon="15.22786">
        <ele>185.671753</ele>
        <time>2013-09-11T14:38:33Z</time>
      </trkpt>
      <trkpt lat="38.80292" lon="15.22781">
        <ele>188.075073</ele>
        <time>2013-09-11T14:38:48Z</time>
      </trkpt>
      <trkpt lat="38.80293" lon="15.22777">
        <ele>189.036377</ele>
        <time>2013-09-11T14:39:06Z</time>
      </trkpt>
      <trkpt lat="38.80292" lon="15.22772">
        <ele>190.478394</ele>
        <time>2013-09-11T14:39:21Z</time>
      </trkpt>
      <trkpt lat="38.80287" lon="15.22773">
        <ele>192.881714</ele>
        <time>2013-09-11T14:39:36Z</time>
      </trkpt>
      <trkpt lat="38.80284" lon="15.22767">
        <ele>196.246338</ele>
        <time>2013-09-11T14:39:48Z</time>
      </trkpt>
      <trkpt lat="38.80279" lon="15.2276">
        <ele>197.20752</ele>
        <time>2013-09-11T14:40:04Z</time>
      </trkpt>
      <trkpt lat="38.80276" lon="15.22758">
        <ele>198.168945</ele>
        <time>2013-09-11T14:40:23Z</time>
      </trkpt>
      <trkpt lat="38.80271" lon="15.22757">
        <ele>200.091675</ele>
        <time>2013-09-11T14:40:48Z</time>
      </trkpt>
      <trkpt lat="38.80267" lon="15.22753">
        <ele>203.456177</ele>
        <time>2013-09-11T14:41:02Z</time>
      </trkpt>
      <trkpt lat="38.80262" lon="15.2275">
        <ele>205.378784</ele>
        <time>2013-09-11T14:41:18Z</time>
      </trkpt>
      <trkpt lat="38.80257" lon="15.22747">
        <ele>206.820679</ele>
        <time>2013-09-11T14:41:33Z</time>
      </trkpt>
      <trkpt lat="38.80252" lon="15.22744">
        <ele>209.704834</ele>
        <time>2013-09-11T14:41:46Z</time>
      </trkpt>
      <trkpt lat="38.80246" lon="15.22746">
        <ele>211.627441</ele>
        <time>2013-09-11T14:42:01Z</time>
      </trkpt>
      <trkpt lat="38.80239" lon="15.22745">
        <ele>214.03064</ele>
        <time>2013-09-11T14:42:18Z</time>
      </trkpt>
      <trkpt lat="38.80233" lon="15.22739">
        <ele>215.472656</ele>
        <time>2013-09-11T14:42:34Z</time>
      </trkpt>
      <trkpt lat="38.80227" lon="15.22735">
        <ele>218.356567</ele>
        <time>2013-09-11T14:42:51Z</time>
      </trkpt>
      <trkpt lat="38.80223" lon="15.2273">
        <ele>220.759888</ele>
        <time>2013-09-11T14:43:03Z</time>
      </trkpt>
      <trkpt lat="38.8022" lon="15.22726">
        <ele>222.201782</ele>
        <time>2013-09-11T14:43:20Z</time>
      </trkpt>
      <trkpt lat="38.80217" lon="15.22719">
        <ele>223.643799</ele>
        <time>2013-09-11T14:43:41Z</time>
      </trkpt>
      <trkpt lat="38.80212" lon="15.22715">
        <ele>226.047119</ele>
        <time>2013-09-11T14:43:55Z</time>
      </trkpt>
      <trkpt lat="38.80204" lon="15.22715">
        <ele>228.450439</ele>
        <time>2013-09-11T14:44:13Z</time>
      </trkpt>
      <trkpt lat="38.80197" lon="15.22712">
        <ele>231.334351</ele>
        <time>2013-09-11T14:44:27Z</time>
      </trkpt>
      <trkpt lat="38.80191" lon="15.2271">
        <ele>232.295776</ele>
        <time>2013-09-11T14:44:44Z</time>
      </trkpt>
      <trkpt lat="38.80189" lon="15.22708">
        <ele>233.25708</ele>
        <time>2013-09-11T14:45:01Z</time>
      </trkpt>
      <trkpt lat="38.80186" lon="15.22708">
        <ele>233.737671</ele>
        <time>2013-09-11T14:45:19Z</time>
      </trkpt>
      <trkpt lat="38.80179" lon="15.22712">
        <ele>236.140991</ele>
        <time>2013-09-11T14:45:36Z</time>
      </trkpt>
      <trkpt lat="38.80175" lon="15.22713">
        <ele>237.582886</ele>
        <time>2013-09-11T14:45:54Z</time>
      </trkpt>
      <trkpt lat="38.80167" lon="15.22716">
        <ele>239.986206</ele>
        <time>2013-09-11T14:46:21Z</time>
      </trkpt>
      <trkpt lat="38.80163" lon="15.22718">
        <ele>240.467041</ele>
        <time>2013-09-11T14:46:37Z</time>
      </trkpt>
      <trkpt lat="38.80158" lon="15.22717">
        <ele>242.870239</ele>
        <time>2013-09-11T14:46:52Z</time>
      </trkpt>
      <trkpt lat="38.80156" lon="15.22716">
        <ele>244.312256</ele>
        <time>2013-09-11T14:46:56Z</time>
      </trkpt>
      <trkpt lat="38.80151" lon="15.22709">
        <ele>247.676758</ele>
        <time>2013-09-11T14:47:14Z</time>
      </trkpt>
      <trkpt lat="38.80148" lon="15.22708">
        <ele>247.676758</ele>
        <time>2013-09-11T14:47:35Z</time>
      </trkpt>
      <trkpt lat="38.80143" lon="15.22708">
        <ele>251.041382</ele>
        <time>2013-09-11T14:47:51Z</time>
      </trkpt>
      <trkpt lat="38.80136" lon="15.22703">
        <ele>254.406006</ele>
        <time>2013-09-11T14:48:07Z</time>
      </trkpt>
      <trkpt lat="38.8013" lon="15.22697">
        <ele>256.328735</ele>
        <time>2013-09-11T14:48:22Z</time>
      </trkpt>
      <trkpt lat="38.80122" lon="15.2269">
        <ele>258.731934</ele>
        <time>2013-09-11T14:48:38Z</time>
      </trkpt>
      <trkpt lat="38.80114" lon="15.22689">
        <ele>261.615967</ele>
        <time>2013-09-11T14:48:55Z</time>
      </trkpt>
      <trkpt lat="38.80104" lon="15.2269">
        <ele>264.019287</ele>
        <time>2013-09-11T14:49:13Z</time>
      </trkpt>
      <trkpt lat="38.80096" lon="15.22688">
        <ele>266.422485</ele>
        <time>2013-09-11T14:49:29Z</time>
      </trkpt>
      <trkpt lat="38.80087" lon="15.22691">
        <ele>269.306519</ele>
        <time>2013-09-11T14:49:46Z</time>
      </trkpt>
      <trkpt lat="38.80082" lon="15.22692">
        <ele>271.229126</ele>
        <time>2013-09-11T14:50:02Z</time>
      </trkpt>
      <trkpt lat="38.80077" lon="15.22695">
        <ele>272.671143</ele>
        <time>2013-09-11T14:50:17Z</time>
      </trkpt>
      <trkpt lat="38.8007" lon="15.22696">
        <ele>276.035645</ele>
        <time>2013-09-11T14:50:32Z</time>
      </trkpt>
      <trkpt lat="38.80065" lon="15.22697">
        <ele>277.958252</ele>
        <time>2013-09-11T14:50:49Z</time>
      </trkpt>
      <trkpt lat="38.80065" lon="15.22697">
        <ele>278.438965</ele>
        <time>2013-09-11T14:51:06Z</time>
      </trkpt>
      <trkpt lat="38.80064" lon="15.22698">
        <ele>278.919678</ele>
        <time>2013-09-11T14:51:50Z</time>
      </trkpt>
      <trkpt lat="38.80063" lon="15.22698">
        <ele>279.400269</ele>
        <time>2013-09-11T14:52:51Z</time>
      </trkpt>
      <trkpt lat="38.80063" lon="15.22698">
        <ele>278.919678</ele>
        <time>2013-09-11T14:53:15Z</time>
      </trkpt>
      <trkpt lat="38.80063" lon="15.22697">
        <ele>277.958252</ele>
        <time>2013-09-11T14:53:54Z</time>
      </trkpt>
      <trkpt lat="38.80063" lon="15.22697">
        <ele>279.400269</ele>
        <time>2013-09-11T14:54:35Z</time>
      </trkpt>
      <trkpt lat="38.80056" lon="15.22704">
        <ele>280.361694</ele>
        <time>2013-09-11T14:54:56Z</time>
      </trkpt>
      <trkpt lat="38.80052" lon="15.22704">
        <ele>281.322998</ele>
        <time>2013-09-11T14:55:17Z</time>
      </trkpt>
      <trkpt lat="38.80052" lon="15.22695">
        <ele>284.206909</ele>
        <time>2013-09-11T14:55:33Z</time>
      </trkpt>
      <trkpt lat="38.80052" lon="15.22687">
        <ele>285.648804</ele>
        <time>2013-09-11T14:55:52Z</time>
      </trkpt>
      <trkpt lat="38.80047" lon="15.22691">
        <ele>287.09082</ele>
        <time>2013-09-11T14:56:07Z</time>
      </trkpt>
      <trkpt lat="38.80047" lon="15.22686">
        <ele>289.01355</ele>
        <time>2013-09-11T14:56:22Z</time>
      </trkpt>
      <trkpt lat="38.80041" lon="15.22687">
        <ele>289.974854</ele>
        <time>2013-09-11T14:56:37Z</time>
      </trkpt>
      <trkpt lat="38.80037" lon="15.22687">
        <ele>291.416748</ele>
        <time>2013-09-11T14:56:55Z</time>
      </trkpt>
      <trkpt lat="38.80033" lon="15.22686">
        <ele>293.820068</ele>
        <time>2013-09-11T14:57:11Z</time>
      </trkpt>
      <trkpt lat="38.80034" lon="15.22678">
        <ele>296.223511</ele>
        <time>2013-09-11T14:57:28Z</time>
      </trkpt>
      <trkpt lat="38.80026" lon="15.22679">
        <ele>299.588013</ele>
        <time>2013-09-11T14:57:40Z</time>
      </trkpt>
      <trkpt lat="38.80015" lon="15.22686">
        <ele>301.029907</ele>
        <time>2013-09-11T14:57:58Z</time>
      </trkpt>
      <trkpt lat="38.80003" lon="15.2269">
        <ele>303.91394</ele>
        <time>2013-09-11T14:58:18Z</time>
      </trkpt>
      <trkpt lat="38.79992" lon="15.22688">
        <ele>306.797852</ele>
        <time>2013-09-11T14:58:36Z</time>
      </trkpt>
      <trkpt lat="38.79985" lon="15.2269">
        <ele>307.278564</ele>
        <time>2013-09-11T14:58:52Z</time>
      </trkpt>
      <trkpt lat="38.79976" lon="15.22688">
        <ele>310.162476</ele>
        <time>2013-09-11T14:59:10Z</time>
      </trkpt>
      <trkpt lat="38.79969" lon="15.22685">
        <ele>312.085205</ele>
        <time>2013-09-11T14:59:30Z</time>
      </trkpt>
      <trkpt lat="38.79963" lon="15.22682">
        <ele>314.007813</ele>
        <time>2013-09-11T14:59:47Z</time>
      </trkpt>
      <trkpt lat="38.79959" lon="15.22681">
        <ele>315.449829</ele>
        <time>2013-09-11T15:00:03Z</time>
      </trkpt>
      <trkpt lat="38.79959" lon="15.22677">
        <ele>316.891724</ele>
        <time>2013-09-11T15:00:20Z</time>
      </trkpt>
      <trkpt lat="38.79975" lon="15.22666">
        <ele>319.295044</ele>
        <time>2013-09-11T15:00:39Z</time>
      </trkpt>
      <trkpt lat="38.79983" lon="15.2266">
        <ele>320.737061</ele>
        <time>2013-09-11T15:00:53Z</time>
      </trkpt>
      <trkpt lat="38.79984" lon="15.2265">
        <ele>322.178955</ele>
        <time>2013-09-11T15:01:12Z</time>
      </trkpt>
      <trkpt lat="38.79982" lon="15.22645">
        <ele>323.620972</ele>
        <time>2013-09-11T15:01:29Z</time>
      </trkpt>
      <trkpt lat="38.79973" lon="15.22642">
        <ele>326.985596</ele>
        <time>2013-09-11T15:01:46Z</time>
      </trkpt>
      <trkpt lat="38.79967" lon="15.22645">
        <ele>329.869507</ele>
        <time>2013-09-11T15:02:00Z</time>
      </trkpt>
      <trkpt lat="38.79957" lon="15.22641">
        <ele>331.311523</ele>
        <time>2013-09-11T15:02:17Z</time>
      </trkpt>
      <trkpt lat="38.79951" lon="15.2264">
        <ele>333.234131</ele>
        <time>2013-09-11T15:02:32Z</time>
      </trkpt>
      <trkpt lat="38.79946" lon="15.22634">
        <ele>335.156738</ele>
        <time>2013-09-11T15:02:50Z</time>
      </trkpt>
      <trkpt lat="38.79942" lon="15.22629">
        <ele>337.079468</ele>
        <time>2013-09-11T15:03:05Z</time>
      </trkpt>
      <trkpt lat="38.79945" lon="15.22623">
        <ele>340.444092</ele>
        <time>2013-09-11T15:03:16Z</time>
      </trkpt>
      <trkpt lat="38.79952" lon="15.22616">
        <ele>340.924683</ele>
        <time>2013-09-11T15:03:32Z</time>
      </trkpt>
      <trkpt lat="38.79951" lon="15.22606">
        <ele>343.808594</ele>
        <time>2013-09-11T15:03:48Z</time>
      </trkpt>
      <trkpt lat="38.79942" lon="15.22601">
        <ele>345.731323</ele>
        <time>2013-09-11T15:04:06Z</time>
      </trkpt>
      <trkpt lat="38.79935" lon="15.22594">
        <ele>349.095825</ele>
        <time>2013-09-11T15:04:22Z</time>
      </trkpt>
      <trkpt lat="38.79933" lon="15.22583">
        <ele>351.499146</ele>
        <time>2013-09-11T15:04:40Z</time>
      </trkpt>
      <trkpt lat="38.79928" lon="15.22576">
        <ele>354.383179</ele>
        <time>2013-09-11T15:04:54Z</time>
      </trkpt>
      <trkpt lat="38.79919" lon="15.22569">
        <ele>355.344482</ele>
        <time>2013-09-11T15:05:11Z</time>
      </trkpt>
      <trkpt lat="38.79921" lon="15.22561">
        <ele>358.228394</ele>
        <time>2013-09-11T15:05:26Z</time>
      </trkpt>
      <trkpt lat="38.79923" lon="15.22557">
        <ele>359.189697</ele>
        <time>2013-09-11T15:05:40Z</time>
      </trkpt>
      <trkpt lat="38.7992" lon="15.2255">
        <ele>361.112427</ele>
        <time>2013-09-11T15:05:56Z</time>
      </trkpt>
      <trkpt lat="38.7992" lon="15.22541">
        <ele>363.035034</ele>
        <time>2013-09-11T15:06:13Z</time>
      </trkpt>
      <trkpt lat="38.79922" lon="15.22532">
        <ele>364.476929</ele>
        <time>2013-09-11T15:06:29Z</time>
      </trkpt>
      <trkpt lat="38.79925" lon="15.22521">
        <ele>367.360962</ele>
        <time>2013-09-11T15:06:50Z</time>
      </trkpt>
      <trkpt lat="38.79925" lon="15.22515">
        <ele>369.283691</ele>
        <time>2013-09-11T15:07:09Z</time>
      </trkpt>
      <trkpt lat="38.79922" lon="15.22508">
        <ele>370.244873</ele>
        <time>2013-09-11T15:07:28Z</time>
      </trkpt>
      <trkpt lat="38.79917" lon="15.22507">
        <ele>373.128906</ele>
        <time>2013-09-11T15:07:44Z</time>
      </trkpt>
      <trkpt lat="38.79907" lon="15.22511">
        <ele>376.012817</ele>
        <time>2013-09-11T15:08:00Z</time>
      </trkpt>
      <trkpt lat="38.79898" lon="15.22523">
        <ele>378.416138</ele>
        <time>2013-09-11T15:08:21Z</time>
      </trkpt>
      <trkpt lat="38.79893" lon="15.22526">
        <ele>379.858032</ele>
        <time>2013-09-11T15:08:38Z</time>
      </trkpt>
      <trkpt lat="38.79891" lon="15.22521">
        <ele>381.78064</ele>
        <time>2013-09-11T15:08:53Z</time>
      </trkpt>
      <trkpt lat="38.7989" lon="15.22511">
        <ele>384.184082</ele>
        <time>2013-09-11T15:09:06Z</time>
      </trkpt>
      <trkpt lat="38.79888" lon="15.22503">
        <ele>385.625977</ele>
        <time>2013-09-11T15:09:26Z</time>
      </trkpt>
      <trkpt lat="38.79887" lon="15.22494">
        <ele>388.029297</ele>
        <time>2013-09-11T15:09:43Z</time>
      </trkpt>
      <trkpt lat="38.79885" lon="15.22486">
        <ele>388.990601</ele>
        <time>2013-09-11T15:10:02Z</time>
      </trkpt>
      <trkpt lat="38.79885" lon="15.22481">
        <ele>390.432617</ele>
        <time>2013-09-11T15:10:20Z</time>
      </trkpt>
      <trkpt lat="38.79879" lon="15.22478">
        <ele>392.355347</ele>
        <time>2013-09-11T15:10:40Z</time>
      </trkpt>
      <trkpt lat="38.7988" lon="15.22468">
        <ele>394.758545</ele>
        <time>2013-09-11T15:10:58Z</time>
      </trkpt>
      <trkpt lat="38.79882" lon="15.22459">
        <ele>396.200562</ele>
        <time>2013-09-11T15:11:16Z</time>
      </trkpt>
      <trkpt lat="38.79884" lon="15.22451">
        <ele>400.045898</ele>
        <time>2013-09-11T15:11:33Z</time>
      </trkpt>
      <trkpt lat="38.79884" lon="15.22442">
        <ele>401.968506</ele>
        <time>2013-09-11T15:11:56Z</time>
      </trkpt>
      <trkpt lat="38.79879" lon="15.22444">
        <ele>404.371704</ele>
        <time>2013-09-11T15:12:14Z</time>
      </trkpt>
      <trkpt lat="38.79874" lon="15.22442">
        <ele>406.294312</ele>
        <time>2013-09-11T15:12:32Z</time>
      </trkpt>
      <trkpt lat="38.79866" lon="15.2244">
        <ele>408.697632</ele>
        <time>2013-09-11T15:12:48Z</time>
      </trkpt>
      <trkpt lat="38.7987" lon="15.22432">
        <ele>412.062256</ele>
        <time>2013-09-11T15:13:02Z</time>
      </trkpt>
      <trkpt lat="38.79872" lon="15.22421">
        <ele>413.02356</ele>
        <time>2013-09-11T15:13:22Z</time>
      </trkpt>
      <trkpt lat="38.79876" lon="15.2241">
        <ele>414.946167</ele>
        <time>2013-09-11T15:13:40Z</time>
      </trkpt>
      <trkpt lat="38.79884" lon="15.22402">
        <ele>418.310791</ele>
        <time>2013-09-11T15:13:55Z</time>
      </trkpt>
      <trkpt lat="38.79889" lon="15.22393">
        <ele>421.194824</ele>
        <time>2013-09-11T15:14:13Z</time>
      </trkpt>
      <trkpt lat="38.79877" lon="15.22392">
        <ele>423.598022</ele>
        <time>2013-09-11T15:14:32Z</time>
      </trkpt>
      <trkpt lat="38.79868" lon="15.22393">
        <ele>424.078735</ele>
        <time>2013-09-11T15:14:52Z</time>
      </trkpt>
      <trkpt lat="38.7986" lon="15.22393">
        <ele>425.520752</ele>
        <time>2013-09-11T15:15:11Z</time>
      </trkpt>
      <trkpt lat="38.79854" lon="15.2239">
        <ele>426.482056</ele>
        <time>2013-09-11T15:15:24Z</time>
      </trkpt>
      <trkpt lat="38.79853" lon="15.22384">
        <ele>428.885376</ele>
        <time>2013-09-11T15:15:42Z</time>
      </trkpt>
      <trkpt lat="38.79852" lon="15.22381">
        <ele>429.846558</ele>
        <time>2013-09-11T15:16:07Z</time>
      </trkpt>
      <trkpt lat="38.79853" lon="15.22373">
        <ele>431.288574</ele>
        <time>2013-09-11T15:16:26Z</time>
      </trkpt>
      <trkpt lat="38.79855" lon="15.22366">
        <ele>434.65332</ele>
        <time>2013-09-11T15:16:44Z</time>
      </trkpt>
      <trkpt lat="38.79852" lon="15.2236">
        <ele>436.095215</ele>
        <time>2013-09-11T15:17:00Z</time>
      </trkpt>
      <trkpt lat="38.79847" lon="15.22355">
        <ele>437.056519</ele>
        <time>2013-09-11T15:17:21Z</time>
      </trkpt>
      <trkpt lat="38.79842" lon="15.22349">
        <ele>439.459717</ele>
        <time>2013-09-11T15:17:40Z</time>
      </trkpt>
      <trkpt lat="38.79843" lon="15.22342">
        <ele>442.824463</ele>
        <time>2013-09-11T15:17:58Z</time>
      </trkpt>
      <trkpt lat="38.79848" lon="15.22339">
        <ele>445.708374</ele>
        <time>2013-09-11T15:18:11Z</time>
      </trkpt>
      <trkpt lat="38.79861" lon="15.22339">
        <ele>447.150269</ele>
        <time>2013-09-11T15:18:29Z</time>
      </trkpt>
      <trkpt lat="38.79867" lon="15.22336">
        <ele>448.111816</ele>
        <time>2013-09-11T15:18:46Z</time>
      </trkpt>
      <trkpt lat="38.79864" lon="15.22333">
        <ele>449.553711</ele>
        <time>2013-09-11T15:18:59Z</time>
      </trkpt>
      <trkpt lat="38.79859" lon="15.22328">
        <ele>452.918213</ele>
        <time>2013-09-11T15:19:14Z</time>
      </trkpt>
      <trkpt lat="38.79855" lon="15.2232">
        <ele>454.360229</ele>
        <time>2013-09-11T15:19:32Z</time>
      </trkpt>
      <trkpt lat="38.79853" lon="15.22314">
        <ele>456.282959</ele>
        <time>2013-09-11T15:19:49Z</time>
      </trkpt>
      <trkpt lat="38.79851" lon="15.22309">
        <ele>458.686157</ele>
        <time>2013-09-11T15:20:11Z</time>
      </trkpt>
      <trkpt lat="38.79849" lon="15.22302">
        <ele>460.608765</ele>
        <time>2013-09-11T15:20:29Z</time>
      </trkpt>
      <trkpt lat="38.79848" lon="15.22297">
        <ele>463.012085</ele>
        <time>2013-09-11T15:20:43Z</time>
      </trkpt>
      <trkpt lat="38.79843" lon="15.22303">
        <ele>464.934814</ele>
        <time>2013-09-11T15:21:01Z</time>
      </trkpt>
      <trkpt lat="38.79837" lon="15.22306">
        <ele>467.818726</ele>
        <time>2013-09-11T15:21:16Z</time>
      </trkpt>
      <trkpt lat="38.79832" lon="15.22305">
        <ele>469.741333</ele>
        <time>2013-09-11T15:21:33Z</time>
      </trkpt>
      <trkpt lat="38.79834" lon="15.22297">
        <ele>472.144653</ele>
        <time>2013-09-11T15:21:52Z</time>
      </trkpt>
      <trkpt lat="38.79829" lon="15.22297">
        <ele>474.067261</ele>
        <time>2013-09-11T15:22:03Z</time>
      </trkpt>
      <trkpt lat="38.79823" lon="15.22296">
        <ele>475.989868</ele>
        <time>2013-09-11T15:22:18Z</time>
      </trkpt>
      <trkpt lat="38.79821" lon="15.22296">
        <ele>477.431885</ele>
        <time>2013-09-11T15:22:23Z</time>
      </trkpt>
      <trkpt lat="38.79813" lon="15.22291">
        <ele>479.354492</ele>
        <time>2013-09-11T15:22:41Z</time>
      </trkpt>
      <trkpt lat="38.79814" lon="15.22284">
        <ele>481.757813</ele>
        <time>2013-09-11T15:22:58Z</time>
      </trkpt>
      <trkpt lat="38.79807" lon="15.2228">
        <ele>485.603027</ele>
        <time>2013-09-11T15:23:14Z</time>
      </trkpt>
      <trkpt lat="38.79799" lon="15.22276">
        <ele>487.525635</ele>
        <time>2013-09-11T15:23:32Z</time>
      </trkpt>
      <trkpt lat="38.79795" lon="15.22267">
        <ele>488.967773</ele>
        <time>2013-09-11T15:23:48Z</time>
      </trkpt>
      <trkpt lat="38.79792" lon="15.22259">
        <ele>491.851685</ele>
        <time>2013-09-11T15:24:01Z</time>
      </trkpt>
      <trkpt lat="38.79785" lon="15.22249">
        <ele>493.774292</ele>
        <time>2013-09-11T15:24:21Z</time>
      </trkpt>
      <trkpt lat="38.79779" lon="15.22241">
        <ele>496.658325</ele>
        <time>2013-09-11T15:24:41Z</time>
      </trkpt>
      <trkpt lat="38.79774" lon="15.22234">
        <ele>499.542236</ele>
        <time>2013-09-11T15:25:01Z</time>
      </trkpt>
      <trkpt lat="38.79769" lon="15.22224">
        <ele>501.945557</ele>
        <time>2013-09-11T15:25:23Z</time>
      </trkpt>
      <trkpt lat="38.79764" lon="15.2222">
        <ele>503.868164</ele>
        <time>2013-09-11T15:25:44Z</time>
      </trkpt>
      <trkpt lat="38.79759" lon="15.22224">
        <ele>506.752075</ele>
        <time>2013-09-11T15:26:02Z</time>
      </trkpt>
      <trkpt lat="38.79751" lon="15.22234">
        <ele>509.636108</ele>
        <time>2013-09-11T15:26:21Z</time>
      </trkpt>
      <trkpt lat="38.79738" lon="15.22237">
        <ele>510.59729</ele>
        <time>2013-09-11T15:26:42Z</time>
      </trkpt>
      <trkpt lat="38.79728" lon="15.2224">
        <ele>510.59729</ele>
        <time>2013-09-11T15:26:58Z</time>
      </trkpt>
      <trkpt lat="38.79726" lon="15.22241">
        <ele>510.116699</ele>
        <time>2013-09-11T15:27:01Z</time>
      </trkpt>
      <trkpt lat="38.79706" lon="15.22254">
        <ele>508.674683</ele>
        <time>2013-09-11T15:27:22Z</time>
      </trkpt>
      <trkpt lat="38.7969" lon="15.22265">
        <ele>509.155396</ele>
        <time>2013-09-11T15:27:42Z</time>
      </trkpt>
      <trkpt lat="38.79674" lon="15.22273">
        <ele>511.078003</ele>
        <time>2013-09-11T15:28:03Z</time>
      </trkpt>
      <trkpt lat="38.79662" lon="15.22279">
        <ele>511.558716</ele>
        <time>2013-09-11T15:28:22Z</time>
      </trkpt>
      <trkpt lat="38.79652" lon="15.22284">
        <ele>513.962036</ele>
        <time>2013-09-11T15:28:39Z</time>
      </trkpt>
      <trkpt lat="38.79643" lon="15.2229">
        <ele>515.404053</ele>
        <time>2013-09-11T15:28:57Z</time>
      </trkpt>
      <trkpt lat="38.79635" lon="15.22293">
        <ele>516.365234</ele>
        <time>2013-09-11T15:29:04Z</time>
      </trkpt>
      <trkpt lat="38.79618" lon="15.22304">
        <ele>517.807251</ele>
        <time>2013-09-11T15:29:24Z</time>
      </trkpt>
      <trkpt lat="38.79607" lon="15.22311">
        <ele>518.287842</ele>
        <time>2013-09-11T15:29:41Z</time>
      </trkpt>
      <trkpt lat="38.79591" lon="15.22322">
        <ele>518.287842</ele>
        <time>2013-09-11T15:30:04Z</time>
      </trkpt>
      <trkpt lat="38.79576" lon="15.22334">
        <ele>517.807251</ele>
        <time>2013-09-11T15:30:25Z</time>
      </trkpt>
      <trkpt lat="38.79569" lon="15.22344">
        <ele>516.365234</ele>
        <time>2013-09-11T15:30:43Z</time>
      </trkpt>
      <trkpt lat="38.79568" lon="15.22349">
        <ele>516.365234</ele>
        <time>2013-09-11T15:30:59Z</time>
      </trkpt>
      <trkpt lat="38.79567" lon="15.22355">
        <ele>515.884644</ele>
        <time>2013-09-11T15:31:14Z</time>
      </trkpt>
      <trkpt lat="38.79564" lon="15.22353">
        <ele>516.365234</ele>
        <time>2013-09-11T15:31:34Z</time>
      </trkpt>
      <trkpt lat="38.79564" lon="15.22352">
        <ele>516.845947</ele>
        <time>2013-09-11T15:32:14Z</time>
      </trkpt>
      <trkpt lat="38.79562" lon="15.2235">
        <ele>517.32666</ele>
        <time>2013-09-11T15:32:47Z</time>
      </trkpt>
      <trkpt lat="38.79563" lon="15.22351">
        <ele>517.32666</ele>
        <time>2013-09-11T15:32:54Z</time>
      </trkpt>
      <trkpt lat="38.79563" lon="15.22354">
        <ele>517.807251</ele>
        <time>2013-09-11T15:33:05Z</time>
      </trkpt>
      <trkpt lat="38.79565" lon="15.2235">
        <ele>517.807251</ele>
        <time>2013-09-11T15:33:25Z</time>
      </trkpt>
      <trkpt lat="38.79563" lon="15.22348">
        <ele>518.768555</ele>
        <time>2013-09-11T15:33:50Z</time>
      </trkpt>
      <trkpt lat="38.79563" lon="15.22347">
        <ele>518.287842</ele>
        <time>2013-09-11T15:34:54Z</time>
      </trkpt>
      <trkpt lat="38.79564" lon="15.22348">
        <ele>518.287842</ele>
        <time>2013-09-11T15:35:26Z</time>
      </trkpt>
      <trkpt lat="38.79565" lon="15.22349">
        <ele>518.768555</ele>
        <time>2013-09-11T15:36:00Z</time>
      </trkpt>
      <trkpt lat="38.79565" lon="15.22349">
        <ele>518.768555</ele>
        <time>2013-09-11T15:36:44Z</time>
      </trkpt>
      <trkpt lat="38.79565" lon="15.22349">
        <ele>518.287842</ele>
        <time>2013-09-11T15:37:26Z</time>
      </trkpt>
      <trkpt lat="38.79563" lon="15.22348">
        <ele>518.287842</ele>
        <time>2013-09-11T15:38:09Z</time>
      </trkpt>
      <trkpt lat="38.79563" lon="15.22349">
        <ele>518.287842</ele>
        <time>2013-09-11T15:39:12Z</time>
      </trkpt>
      <trkpt lat="38.79565" lon="15.22349">
        <ele>518.768555</ele>
        <time>2013-09-11T15:39:56Z</time>
      </trkpt>
      <trkpt lat="38.79565" lon="15.22351">
        <ele>518.768555</ele>
        <time>2013-09-11T15:40:52Z</time>
      </trkpt>
      <trkpt lat="38.79564" lon="15.22351">
        <ele>518.768555</ele>
        <time>2013-09-11T15:41:28Z</time>
      </trkpt>
      <trkpt lat="38.79564" lon="15.22351">
        <ele>518.768555</ele>
        <time>2013-09-11T15:41:48Z</time>
      </trkpt>
      <trkpt lat="38.79563" lon="15.2235">
        <ele>519.249268</ele>
        <time>2013-09-11T15:42:18Z</time>
      </trkpt>
      <trkpt lat="38.79562" lon="15.2235">
        <ele>519.729858</ele>
        <time>2013-09-11T15:42:36Z</time>
      </trkpt>
      <trkpt lat="38.79563" lon="15.2235">
        <ele>518.768555</ele>
        <time>2013-09-11T15:43:03Z</time>
      </trkpt>
      <trkpt lat="38.79563" lon="15.2235">
        <ele>519.729858</ele>
        <time>2013-09-11T15:43:50Z</time>
      </trkpt>
      <trkpt lat="38.79562" lon="15.22349">
        <ele>519.729858</ele>
        <time>2013-09-11T15:44:14Z</time>
      </trkpt>
      <trkpt lat="38.79562" lon="15.2235">
        <ele>520.691284</ele>
        <time>2013-09-11T15:44:47Z</time>
      </trkpt>
      <trkpt lat="38.79557" lon="15.22352">
        <ele>521.171997</ele>
        <time>2013-09-11T15:45:03Z</time>
      </trkpt>
      <trkpt lat="38.79553" lon="15.22354">
        <ele>521.171997</ele>
        <time>2013-09-11T15:45:25Z</time>
      </trkpt>
      <trkpt lat="38.7955" lon="15.22359">
        <ele>519.729858</ele>
        <time>2013-09-11T15:45:41Z</time>
      </trkpt>
      <trkpt lat="38.79549" lon="15.22363">
        <ele>518.287842</ele>
        <time>2013-09-11T15:46:00Z</time>
      </trkpt>
      <trkpt lat="38.79547" lon="15.22365">
        <ele>517.32666</ele>
        <time>2013-09-11T15:46:20Z</time>
      </trkpt>
      <trkpt lat="38.79546" lon="15.22377">
        <ele>517.32666</ele>
        <time>2013-09-11T15:46:42Z</time>
      </trkpt>
      <trkpt lat="38.79543" lon="15.2238">
        <ele>517.807251</ele>
        <time>2013-09-11T15:46:58Z</time>
      </trkpt>
      <trkpt lat="38.79535" lon="15.2238">
        <ele>519.729858</ele>
        <time>2013-09-11T15:47:12Z</time>
      </trkpt>
      <trkpt lat="38.7953" lon="15.22379">
        <ele>522.613892</ele>
        <time>2013-09-11T15:47:22Z</time>
      </trkpt>
      <trkpt lat="38.79523" lon="15.22384">
        <ele>525.017212</ele>
        <time>2013-09-11T15:47:40Z</time>
      </trkpt>
      <trkpt lat="38.79516" lon="15.22387">
        <ele>525.978394</ele>
        <time>2013-09-11T15:48:00Z</time>
      </trkpt>
      <trkpt lat="38.7951" lon="15.22389">
        <ele>527.42041</ele>
        <time>2013-09-11T15:48:23Z</time>
      </trkpt>
      <trkpt lat="38.79505" lon="15.22383">
        <ele>529.34314</ele>
        <time>2013-09-11T15:48:40Z</time>
      </trkpt>
      <trkpt lat="38.795" lon="15.22381">
        <ele>532.227051</ele>
        <time>2013-09-11T15:48:53Z</time>
      </trkpt>
      <trkpt lat="38.79492" lon="15.22381">
        <ele>532.707764</ele>
        <time>2013-09-11T15:49:09Z</time>
      </trkpt>
      <trkpt lat="38.79487" lon="15.22377">
        <ele>535.591553</ele>
        <time>2013-09-11T15:49:27Z</time>
      </trkpt>
      <trkpt lat="38.79482" lon="15.22376">
        <ele>537.033691</ele>
        <time>2013-09-11T15:49:45Z</time>
      </trkpt>
      <trkpt lat="38.79478" lon="15.22375">
        <ele>537.994995</ele>
        <time>2013-09-11T15:50:01Z</time>
      </trkpt>
      <trkpt lat="38.79474" lon="15.22372">
        <ele>539.43689</ele>
        <time>2013-09-11T15:50:17Z</time>
      </trkpt>
      <trkpt lat="38.79468" lon="15.22371">
        <ele>540.878906</ele>
        <time>2013-09-11T15:50:31Z</time>
      </trkpt>
      <trkpt lat="38.79471" lon="15.22368">
        <ele>541.84021</ele>
        <time>2013-09-11T15:50:44Z</time>
      </trkpt>
      <trkpt lat="38.79476" lon="15.22365">
        <ele>542.801514</ele>
        <time>2013-09-11T15:51:03Z</time>
      </trkpt>
      <trkpt lat="38.79478" lon="15.2236">
        <ele>544.243652</ele>
        <time>2013-09-11T15:51:17Z</time>
      </trkpt>
      <trkpt lat="38.79483" lon="15.22356">
        <ele>547.608154</ele>
        <time>2013-09-11T15:51:26Z</time>
      </trkpt>
      <trkpt lat="38.79487" lon="15.22351">
        <ele>549.050049</ele>
        <time>2013-09-11T15:51:42Z</time>
      </trkpt>
      <trkpt lat="38.79484" lon="15.22349">
        <ele>550.011475</ele>
        <time>2013-09-11T15:51:59Z</time>
      </trkpt>
      <trkpt lat="38.79479" lon="15.22346">
        <ele>551.934082</ele>
        <time>2013-09-11T15:52:15Z</time>
      </trkpt>
      <trkpt lat="38.79474" lon="15.22343">
        <ele>554.817871</ele>
        <time>2013-09-11T15:52:34Z</time>
      </trkpt>
      <trkpt lat="38.79471" lon="15.22343">
        <ele>555.779297</ele>
        <time>2013-09-11T15:52:47Z</time>
      </trkpt>
      <trkpt lat="38.79467" lon="15.22341">
        <ele>557.702148</ele>
        <time>2013-09-11T15:53:02Z</time>
      </trkpt>
      <trkpt lat="38.79471" lon="15.22335">
        <ele>559.624756</ele>
        <time>2013-09-11T15:53:16Z</time>
      </trkpt>
      <trkpt lat="38.79474" lon="15.22329">
        <ele>561.06665</ele>
        <time>2013-09-11T15:53:31Z</time>
      </trkpt>
      <trkpt lat="38.79473" lon="15.22327">
        <ele>563.469971</ele>
        <time>2013-09-11T15:53:48Z</time>
      </trkpt>
      <trkpt lat="38.79467" lon="15.22326">
        <ele>565.392578</ele>
        <time>2013-09-11T15:54:04Z</time>
      </trkpt>
      <trkpt lat="38.79462" lon="15.22324">
        <ele>567.795654</ele>
        <time>2013-09-11T15:54:18Z</time>
      </trkpt>
      <trkpt lat="38.79458" lon="15.22323">
        <ele>569.718506</ele>
        <time>2013-09-11T15:54:32Z</time>
      </trkpt>
      <trkpt lat="38.79455" lon="15.22319">
        <ele>571.1604</ele>
        <time>2013-09-11T15:54:47Z</time>
      </trkpt>
      <trkpt lat="38.7946" lon="15.22312">
        <ele>572.602539</ele>
        <time>2013-09-11T15:55:03Z</time>
      </trkpt>
      <trkpt lat="38.79464" lon="15.22307">
        <ele>574.044434</ele>
        <time>2013-09-11T15:55:18Z</time>
      </trkpt>
      <trkpt lat="38.79469" lon="15.22303">
        <ele>574.525146</ele>
        <time>2013-09-11T15:55:32Z</time>
      </trkpt>
      <trkpt lat="38.79468" lon="15.22298">
        <ele>576.447754</ele>
        <time>2013-09-11T15:55:46Z</time>
      </trkpt>
      <trkpt lat="38.79463" lon="15.22297">
        <ele>578.851074</ele>
        <time>2013-09-11T15:56:01Z</time>
      </trkpt>
      <trkpt lat="38.79456" lon="15.22294">
        <ele>580.773682</ele>
        <time>2013-09-11T15:56:16Z</time>
      </trkpt>
      <trkpt lat="38.7945" lon="15.22292">
        <ele>583.176758</ele>
        <time>2013-09-11T15:56:32Z</time>
      </trkpt>
      <trkpt lat="38.79452" lon="15.22287">
        <ele>584.138184</ele>
        <time>2013-09-11T15:56:48Z</time>
      </trkpt>
      <trkpt lat="38.79455" lon="15.22281">
        <ele>587.502686</ele>
        <time>2013-09-11T15:57:04Z</time>
      </trkpt>
      <trkpt lat="38.7946" lon="15.22274">
        <ele>589.90625</ele>
        <time>2013-09-11T15:57:23Z</time>
      </trkpt>
      <trkpt lat="38.79457" lon="15.22273">
        <ele>591.348145</ele>
        <time>2013-09-11T15:57:40Z</time>
      </trkpt>
      <trkpt lat="38.79452" lon="15.2227">
        <ele>592.790283</ele>
        <time>2013-09-11T15:57:57Z</time>
      </trkpt>
      <trkpt lat="38.79458" lon="15.22266">
        <ele>594.712646</ele>
        <time>2013-09-11T15:58:10Z</time>
      </trkpt>
      <trkpt lat="38.79462" lon="15.2226">
        <ele>597.115967</ele>
        <time>2013-09-11T15:58:29Z</time>
      </trkpt>
      <trkpt lat="38.79467" lon="15.22254">
        <ele>599.038574</ele>
        <time>2013-09-11T15:58:45Z</time>
      </trkpt>
      <trkpt lat="38.79464" lon="15.22251">
        <ele>599.519287</ele>
        <time>2013-09-11T15:58:59Z</time>
      </trkpt>
      <trkpt lat="38.79459" lon="15.2225">
        <ele>601.441895</ele>
        <time>2013-09-11T15:59:13Z</time>
      </trkpt>
      <trkpt lat="38.79454" lon="15.22245">
        <ele>604.326172</ele>
        <time>2013-09-11T15:59:27Z</time>
      </trkpt>
      <trkpt lat="38.7945" lon="15.22241">
        <ele>605.287354</ele>
        <time>2013-09-11T15:59:51Z</time>
      </trkpt>
      <trkpt lat="38.79444" lon="15.22238">
        <ele>606.248535</ele>
        <time>2013-09-11T16:00:07Z</time>
      </trkpt>
      <trkpt lat="38.79437" lon="15.22236">
        <ele>607.209961</ele>
        <time>2013-09-11T16:00:23Z</time>
      </trkpt>
      <trkpt lat="38.79435" lon="15.22232">
        <ele>609.132568</ele>
        <time>2013-09-11T16:00:37Z</time>
      </trkpt>
      <trkpt lat="38.79437" lon="15.2223">
        <ele>610.574463</ele>
        <time>2013-09-11T16:00:42Z</time>
      </trkpt>
      <trkpt lat="38.79442" lon="15.22227">
        <ele>611.535889</ele>
        <time>2013-09-11T16:00:56Z</time>
      </trkpt>
      <trkpt lat="38.79446" lon="15.22224">
        <ele>613.458496</ele>
        <time>2013-09-11T16:01:12Z</time>
      </trkpt>
      <trkpt lat="38.7945" lon="15.22221">
        <ele>614.900391</ele>
        <time>2013-09-11T16:01:33Z</time>
      </trkpt>
      <trkpt lat="38.79454" lon="15.2222">
        <ele>616.342285</ele>
        <time>2013-09-11T16:01:49Z</time>
      </trkpt>
      <trkpt lat="38.7946" lon="15.22215">
        <ele>617.78418</ele>
        <time>2013-09-11T16:02:15Z</time>
      </trkpt>
      <trkpt lat="38.79462" lon="15.22211">
        <ele>619.226318</ele>
        <time>2013-09-11T16:02:30Z</time>
      </trkpt>
      <trkpt lat="38.79464" lon="15.22209">
        <ele>620.187744</ele>
        <time>2013-09-11T16:02:45Z</time>
      </trkpt>
      <trkpt lat="38.79466" lon="15.22205">
        <ele>621.14917</ele>
        <time>2013-09-11T16:02:59Z</time>
      </trkpt>
      <trkpt lat="38.79464" lon="15.222">
        <ele>622.591064</ele>
        <time>2013-09-11T16:03:11Z</time>
      </trkpt>
      <trkpt lat="38.79458" lon="15.22198">
        <ele>624.994385</ele>
        <time>2013-09-11T16:03:25Z</time>
      </trkpt>
      <trkpt lat="38.79454" lon="15.22195">
        <ele>626.916992</ele>
        <time>2013-09-11T16:03:41Z</time>
      </trkpt>
      <trkpt lat="38.79448" lon="15.22194">
        <ele>628.8396</ele>
        <time>2013-09-11T16:03:55Z</time>
      </trkpt>
      <trkpt lat="38.79446" lon="15.22192">
        <ele>629.320068</ele>
        <time>2013-09-11T16:04:19Z</time>
      </trkpt>
      <trkpt lat="38.7944" lon="15.22189">
        <ele>631.24292</ele>
        <time>2013-09-11T16:04:35Z</time>
      </trkpt>
      <trkpt lat="38.79436" lon="15.22187">
        <ele>632.684814</ele>
        <time>2013-09-11T16:04:52Z</time>
      </trkpt>
      <trkpt lat="38.79431" lon="15.22183">
        <ele>634.126709</ele>
        <time>2013-09-11T16:05:10Z</time>
      </trkpt>
      <trkpt lat="38.79435" lon="15.22179">
        <ele>636.049561</ele>
        <time>2013-09-11T16:05:24Z</time>
      </trkpt>
      <trkpt lat="38.79439" lon="15.22174">
        <ele>638.452881</ele>
        <time>2013-09-11T16:05:40Z</time>
      </trkpt>
      <trkpt lat="38.79443" lon="15.2217">
        <ele>640.375488</ele>
        <time>2013-09-11T16:05:53Z</time>
      </trkpt>
      <trkpt lat="38.79447" lon="15.22165">
        <ele>642.778809</ele>
        <time>2013-09-11T16:06:08Z</time>
      </trkpt>
      <trkpt lat="38.79454" lon="15.22161">
        <ele>643.73999</ele>
        <time>2013-09-11T16:06:24Z</time>
      </trkpt>
      <trkpt lat="38.79456" lon="15.22158">
        <ele>644.701172</ele>
        <time>2013-09-11T16:06:40Z</time>
      </trkpt>
      <trkpt lat="38.79457" lon="15.22155">
        <ele>646.624023</ele>
        <time>2013-09-11T16:06:55Z</time>
      </trkpt>
      <trkpt lat="38.79454" lon="15.22154">
        <ele>648.065918</ele>
        <time>2013-09-11T16:07:03Z</time>
      </trkpt>
      <trkpt lat="38.79449" lon="15.22153">
        <ele>649.507813</ele>
        <time>2013-09-11T16:07:21Z</time>
      </trkpt>
      <trkpt lat="38.79445" lon="15.22151">
        <ele>649.988525</ele>
        <time>2013-09-11T16:07:39Z</time>
      </trkpt>
      <trkpt lat="38.7944" lon="15.22148">
        <ele>651.43042</ele>
        <time>2013-09-11T16:07:56Z</time>
      </trkpt>
      <trkpt lat="38.79435" lon="15.22146">
        <ele>652.872559</ele>
        <time>2013-09-11T16:08:12Z</time>
      </trkpt>
      <trkpt lat="38.79433" lon="15.22141">
        <ele>655.756592</ele>
        <time>2013-09-11T16:08:27Z</time>
      </trkpt>
      <trkpt lat="38.79437" lon="15.22137">
        <ele>656.717773</ele>
        <time>2013-09-11T16:08:40Z</time>
      </trkpt>
      <trkpt lat="38.79442" lon="15.22134">
        <ele>659.121094</ele>
        <time>2013-09-11T16:08:55Z</time>
      </trkpt>
      <trkpt lat="38.79448" lon="15.2213">
        <ele>661.524414</ele>
        <time>2013-09-11T16:09:13Z</time>
      </trkpt>
      <trkpt lat="38.79453" lon="15.22125">
        <ele>663.447021</ele>
        <time>2013-09-11T16:09:28Z</time>
      </trkpt>
      <trkpt lat="38.79458" lon="15.22118">
        <ele>666.330811</ele>
        <time>2013-09-11T16:09:43Z</time>
      </trkpt>
      <trkpt lat="38.79462" lon="15.2211">
        <ele>669.215088</ele>
        <time>2013-09-11T16:10:00Z</time>
      </trkpt>
      <trkpt lat="38.79454" lon="15.22109">
        <ele>671.137695</ele>
        <time>2013-09-11T16:10:16Z</time>
      </trkpt>
      <trkpt lat="38.79448" lon="15.22108">
        <ele>671.137695</ele>
        <time>2013-09-11T16:10:35Z</time>
      </trkpt>
      <trkpt lat="38.79443" lon="15.22105">
        <ele>672.57959</ele>
        <time>2013-09-11T16:10:51Z</time>
      </trkpt>
      <trkpt lat="38.79441" lon="15.22101">
        <ele>674.98291</ele>
        <time>2013-09-11T16:11:07Z</time>
      </trkpt>
      <trkpt lat="38.79447" lon="15.22095">
        <ele>677.38623</ele>
        <time>2013-09-11T16:11:23Z</time>
      </trkpt>
      <trkpt lat="38.79451" lon="15.22087">
        <ele>679.308594</ele>
        <time>2013-09-11T16:11:42Z</time>
      </trkpt>
      <trkpt lat="38.79455" lon="15.22079">
        <ele>682.67334</ele>
        <time>2013-09-11T16:12:00Z</time>
      </trkpt>
      <trkpt lat="38.7946" lon="15.22072">
        <ele>684.596191</ele>
        <time>2013-09-11T16:12:16Z</time>
      </trkpt>
      <trkpt lat="38.79455" lon="15.22069">
        <ele>686.038086</ele>
        <time>2013-09-11T16:12:31Z</time>
      </trkpt>
      <trkpt lat="38.79456" lon="15.22068">
        <ele>686.518799</ele>
        <time>2013-09-11T16:12:56Z</time>
      </trkpt>
      <trkpt lat="38.79455" lon="15.22066">
        <ele>686.518799</ele>
        <time>2013-09-11T16:13:59Z</time>
      </trkpt>
      <trkpt lat="38.79455" lon="15.22067">
        <ele>687.47998</ele>
        <time>2013-09-11T16:14:51Z</time>
      </trkpt>
      <trkpt lat="38.79454" lon="15.22068">
        <ele>687.960693</ele>
        <time>2013-09-11T16:15:40Z</time>
      </trkpt>
      <trkpt lat="38.79455" lon="15.22067">
        <ele>687.960693</ele>
        <time>2013-09-11T16:16:22Z</time>
      </trkpt>
      <trkpt lat="38.79451" lon="15.22067">
        <ele>689.402588</ele>
        <time>2013-09-11T16:17:19Z</time>
      </trkpt>
      <trkpt lat="38.79446" lon="15.22064">
        <ele>691.805908</ele>
        <time>2013-09-11T16:17:39Z</time>
      </trkpt>
      <trkpt lat="38.79442" lon="15.22064">
        <ele>692.767334</ele>
        <time>2013-09-11T16:18:08Z</time>
      </trkpt>
      <trkpt lat="38.79438" lon="15.2206">
        <ele>693.247803</ele>
        <time>2013-09-11T16:18:29Z</time>
      </trkpt>
      <trkpt lat="38.79442" lon="15.22054">
        <ele>695.651123</ele>
        <time>2013-09-11T16:18:46Z</time>
      </trkpt>
      <trkpt lat="38.79443" lon="15.22052">
        <ele>696.131836</ele>
        <time>2013-09-11T16:18:50Z</time>
      </trkpt>
      <trkpt lat="38.79451" lon="15.22045">
        <ele>699.496338</ele>
        <time>2013-09-11T16:19:08Z</time>
      </trkpt>
      <trkpt lat="38.79456" lon="15.22041">
        <ele>699.977051</ele>
        <time>2013-09-11T16:19:28Z</time>
      </trkpt>
      <trkpt lat="38.79459" lon="15.22039">
        <ele>700.458008</ele>
        <time>2013-09-11T16:19:52Z</time>
      </trkpt>
      <trkpt lat="38.79464" lon="15.22035">
        <ele>702.861084</ele>
        <time>2013-09-11T16:20:11Z</time>
      </trkpt>
      <trkpt lat="38.7947" lon="15.22034">
        <ele>702.861084</ele>
        <time>2013-09-11T16:20:29Z</time>
      </trkpt>
      <trkpt lat="38.79472" lon="15.2203">
        <ele>704.303223</ele>
        <time>2013-09-11T16:20:46Z</time>
      </trkpt>
      <trkpt lat="38.79474" lon="15.22027">
        <ele>705.745117</ele>
        <time>2013-09-11T16:21:00Z</time>
      </trkpt>
      <trkpt lat="38.7948" lon="15.22022">
        <ele>707.667725</ele>
        <time>2013-09-11T16:21:21Z</time>
      </trkpt>
      <trkpt lat="38.79474" lon="15.22019">
        <ele>710.070801</ele>
        <time>2013-09-11T16:21:37Z</time>
      </trkpt>
      <trkpt lat="38.79467" lon="15.22014">
        <ele>712.954834</ele>
        <time>2013-09-11T16:21:53Z</time>
      </trkpt>
      <trkpt lat="38.79461" lon="15.2201">
        <ele>715.838867</ele>
        <time>2013-09-11T16:22:05Z</time>
      </trkpt>
      <trkpt lat="38.79449" lon="15.22005">
        <ele>718.7229</ele>
        <time>2013-09-11T16:22:24Z</time>
      </trkpt>
      <trkpt lat="38.79447" lon="15.22004">
        <ele>719.684326</ele>
        <time>2013-09-11T16:22:45Z</time>
      </trkpt>
      <trkpt lat="38.79437" lon="15.22002">
        <ele>719.684326</ele>
        <time>2013-09-11T16:23:04Z</time>
      </trkpt>
      <trkpt lat="38.79429" lon="15.22">
        <ele>722.568115</ele>
        <time>2013-09-11T16:23:22Z</time>
      </trkpt>
      <trkpt lat="38.79426" lon="15.21993">
        <ele>725.451904</ele>
        <time>2013-09-11T16:23:42Z</time>
      </trkpt>
      <trkpt lat="38.79435" lon="15.2199">
        <ele>726.894043</ele>
        <time>2013-09-11T16:24:02Z</time>
      </trkpt>
      <trkpt lat="38.79438" lon="15.21984">
        <ele>728.335938</ele>
        <time>2013-09-11T16:24:19Z</time>
      </trkpt>
      <trkpt lat="38.79443" lon="15.21978">
        <ele>730.739258</ele>
        <time>2013-09-11T16:24:35Z</time>
      </trkpt>
      <trkpt lat="38.79452" lon="15.21974">
        <ele>732.662109</ele>
        <time>2013-09-11T16:24:55Z</time>
      </trkpt>
      <trkpt lat="38.79457" lon="15.21973">
        <ele>733.623291</ele>
        <time>2013-09-11T16:25:12Z</time>
      </trkpt>
      <trkpt lat="38.79463" lon="15.21969">
        <ele>736.026611</ele>
        <time>2013-09-11T16:25:33Z</time>
      </trkpt>
      <trkpt lat="38.79467" lon="15.21962">
        <ele>739.391113</ele>
        <time>2013-09-11T16:25:47Z</time>
      </trkpt>
      <trkpt lat="38.79471" lon="15.21956">
        <ele>740.833008</ele>
        <time>2013-09-11T16:26:05Z</time>
      </trkpt>
      <trkpt lat="38.79468" lon="15.21952">
        <ele>742.755859</ele>
        <time>2013-09-11T16:26:22Z</time>
      </trkpt>
      <trkpt lat="38.79455" lon="15.21953">
        <ele>745.639648</ele>
        <time>2013-09-11T16:26:43Z</time>
      </trkpt>
      <trkpt lat="38.79447" lon="15.21948">
        <ele>749.004395</ele>
        <time>2013-09-11T16:26:57Z</time>
      </trkpt>
      <trkpt lat="38.79439" lon="15.21945">
        <ele>749.485107</ele>
        <time>2013-09-11T16:27:16Z</time>
      </trkpt>
      <trkpt lat="38.79429" lon="15.21945">
        <ele>749.96582</ele>
        <time>2013-09-11T16:27:36Z</time>
      </trkpt>
      <trkpt lat="38.79422" lon="15.21944">
        <ele>751.888428</ele>
        <time>2013-09-11T16:27:54Z</time>
      </trkpt>
      <trkpt lat="38.7942" lon="15.21942">
        <ele>752.849609</ele>
        <time>2013-09-11T16:28:09Z</time>
      </trkpt>
      <trkpt lat="38.7942" lon="15.21937">
        <ele>754.291748</ele>
        <time>2013-09-11T16:28:25Z</time>
      </trkpt>
      <trkpt lat="38.79423" lon="15.21933">
        <ele>757.175537</ele>
        <time>2013-09-11T16:28:44Z</time>
      </trkpt>
      <trkpt lat="38.79428" lon="15.21927">
        <ele>759.578857</ele>
        <time>2013-09-11T16:29:02Z</time>
      </trkpt>
      <trkpt lat="38.79433" lon="15.21922">
        <ele>761.020752</ele>
        <time>2013-09-11T16:29:26Z</time>
      </trkpt>
      <trkpt lat="38.79439" lon="15.21917">
        <ele>762.943359</ele>
        <time>2013-09-11T16:29:45Z</time>
      </trkpt>
      <trkpt lat="38.79446" lon="15.21912">
        <ele>766.308105</ele>
        <time>2013-09-11T16:30:05Z</time>
      </trkpt>
      <trkpt lat="38.7945" lon="15.21907">
        <ele>768.230713</ele>
        <time>2013-09-11T16:30:24Z</time>
      </trkpt>
      <trkpt lat="38.79456" lon="15.219">
        <ele>771.114746</ele>
        <time>2013-09-11T16:30:44Z</time>
      </trkpt>
      <trkpt lat="38.79461" lon="15.21894">
        <ele>773.518066</ele>
        <time>2013-09-11T16:31:03Z</time>
      </trkpt>
      <trkpt lat="38.79458" lon="15.21892">
        <ele>775.44043</ele>
        <time>2013-09-11T16:31:18Z</time>
      </trkpt>
      <trkpt lat="38.79448" lon="15.2189">
        <ele>778.805176</ele>
        <time>2013-09-11T16:31:37Z</time>
      </trkpt>
      <trkpt lat="38.79443" lon="15.21886">
        <ele>782.169922</ele>
        <time>2013-09-11T16:31:53Z</time>
      </trkpt>
      <trkpt lat="38.7945" lon="15.21877">
        <ele>784.573242</ele>
        <time>2013-09-11T16:32:13Z</time>
      </trkpt>
      <trkpt lat="38.79458" lon="15.2187">
        <ele>785.534424</ele>
        <time>2013-09-11T16:32:34Z</time>
      </trkpt>
      <trkpt lat="38.79453" lon="15.21869">
        <ele>787.937744</ele>
        <time>2013-09-11T16:32:52Z</time>
      </trkpt>
      <trkpt lat="38.79449" lon="15.21869">
        <ele>788.89917</ele>
        <time>2013-09-11T16:33:09Z</time>
      </trkpt>
      <trkpt lat="38.79441" lon="15.21871">
        <ele>789.379639</ele>
        <time>2013-09-11T16:33:28Z</time>
      </trkpt>
      <trkpt lat="38.79437" lon="15.21867">
        <ele>793.224854</ele>
        <time>2013-09-11T16:33:47Z</time>
      </trkpt>
      <trkpt lat="38.79432" lon="15.21865">
        <ele>793.705566</ele>
        <time>2013-09-11T16:34:03Z</time>
      </trkpt>
      <trkpt lat="38.79427" lon="15.21862">
        <ele>796.109131</ele>
        <time>2013-09-11T16:34:20Z</time>
      </trkpt>
      <trkpt lat="38.79423" lon="15.21858">
        <ele>798.99292</ele>
        <time>2013-09-11T16:34:36Z</time>
      </trkpt>
      <trkpt lat="38.79417" lon="15.21855">
        <ele>801.39624</ele>
        <time>2013-09-11T16:34:54Z</time>
      </trkpt>
      <trkpt lat="38.79417" lon="15.2185">
        <ele>802.838135</ele>
        <time>2013-09-11T16:35:09Z</time>
      </trkpt>
      <trkpt lat="38.79422" lon="15.21845">
        <ele>804.280273</ele>
        <time>2013-09-11T16:35:30Z</time>
      </trkpt>
      <trkpt lat="38.7943" lon="15.21841">
        <ele>807.164063</ele>
        <time>2013-09-11T16:35:49Z</time>
      </trkpt>
      <trkpt lat="38.79434" lon="15.21836">
        <ele>809.567383</ele>
        <time>2013-09-11T16:36:11Z</time>
      </trkpt>
      <trkpt lat="38.79438" lon="15.21829">
        <ele>812.451416</ele>
        <time>2013-09-11T16:36:25Z</time>
      </trkpt>
      <trkpt lat="38.79443" lon="15.21823">
        <ele>813.893311</ele>
        <time>2013-09-11T16:36:39Z</time>
      </trkpt>
      <trkpt lat="38.79449" lon="15.21813">
        <ele>815.816162</ele>
        <time>2013-09-11T16:37:02Z</time>
      </trkpt>
      <trkpt lat="38.79453" lon="15.21806">
        <ele>818.219238</ele>
        <time>2013-09-11T16:37:22Z</time>
      </trkpt>
      <trkpt lat="38.79459" lon="15.21795">
        <ele>820.141846</ele>
        <time>2013-09-11T16:37:42Z</time>
      </trkpt>
      <trkpt lat="38.79457" lon="15.21793">
        <ele>820.622559</ele>
        <time>2013-09-11T16:37:57Z</time>
      </trkpt>
      <trkpt lat="38.79446" lon="15.21796">
        <ele>823.506592</ele>
        <time>2013-09-11T16:38:18Z</time>
      </trkpt>
      <trkpt lat="38.79442" lon="15.21797">
        <ele>824.467773</ele>
        <time>2013-09-11T16:38:36Z</time>
      </trkpt>
      <trkpt lat="38.79432" lon="15.21799">
        <ele>826.871094</ele>
        <time>2013-09-11T16:38:55Z</time>
      </trkpt>
      <trkpt lat="38.79423" lon="15.21799">
        <ele>829.755127</ele>
        <time>2013-09-11T16:39:15Z</time>
      </trkpt>
      <trkpt lat="38.79413" lon="15.21797">
        <ele>832.158447</ele>
        <time>2013-09-11T16:39:36Z</time>
      </trkpt>
      <trkpt lat="38.79422" lon="15.21789">
        <ele>835.04248</ele>
        <time>2013-09-11T16:39:57Z</time>
      </trkpt>
      <trkpt lat="38.79426" lon="15.21784">
        <ele>836.964844</ele>
        <time>2013-09-11T16:40:18Z</time>
      </trkpt>
      <trkpt lat="38.79433" lon="15.21775">
        <ele>838.887695</ele>
        <time>2013-09-11T16:40:36Z</time>
      </trkpt>
      <trkpt lat="38.79437" lon="15.21769">
        <ele>840.810059</ele>
        <time>2013-09-11T16:40:54Z</time>
      </trkpt>
      <trkpt lat="38.79437" lon="15.21764">
        <ele>841.290771</ele>
        <time>2013-09-11T16:41:20Z</time>
      </trkpt>
      <trkpt lat="38.79438" lon="15.21755">
        <ele>844.175049</ele>
        <time>2013-09-11T16:41:41Z</time>
      </trkpt>
      <trkpt lat="38.79439" lon="15.21751">
        <ele>844.175049</ele>
        <time>2013-09-11T16:41:58Z</time>
      </trkpt>
      <trkpt lat="38.79437" lon="15.21744">
        <ele>845.616943</ele>
        <time>2013-09-11T16:42:17Z</time>
      </trkpt>
      <trkpt lat="38.79436" lon="15.21742">
        <ele>847.058838</ele>
        <time>2013-09-11T16:42:31Z</time>
      </trkpt>
      <trkpt lat="38.79432" lon="15.21734">
        <ele>847.539551</ele>
        <time>2013-09-11T16:42:48Z</time>
      </trkpt>
      <trkpt lat="38.79427" lon="15.21738">
        <ele>850.904053</ele>
        <time>2013-09-11T16:43:02Z</time>
      </trkpt>
      <trkpt lat="38.79422" lon="15.21742">
        <ele>852.82666</ele>
        <time>2013-09-11T16:43:20Z</time>
      </trkpt>
      <trkpt lat="38.79419" lon="15.21745">
        <ele>853.788086</ele>
        <time>2013-09-11T16:43:43Z</time>
      </trkpt>
      <trkpt lat="38.79415" lon="15.21742">
        <ele>853.788086</ele>
        <time>2013-09-11T16:43:58Z</time>
      </trkpt>
      <trkpt lat="38.79414" lon="15.21737">
        <ele>856.671875</ele>
        <time>2013-09-11T16:44:15Z</time>
      </trkpt>
      <trkpt lat="38.79411" lon="15.21735">
        <ele>859.075195</ele>
        <time>2013-09-11T16:44:25Z</time>
      </trkpt>
      <trkpt lat="38.79405" lon="15.21736">
        <ele>860.998047</ele>
        <time>2013-09-11T16:44:41Z</time>
      </trkpt>
      <trkpt lat="38.79401" lon="15.2173">
        <ele>862.920654</ele>
        <time>2013-09-11T16:44:58Z</time>
      </trkpt>
      <trkpt lat="38.79394" lon="15.21729">
        <ele>865.323975</ele>
        <time>2013-09-11T16:45:15Z</time>
      </trkpt>
      <trkpt lat="38.79389" lon="15.21724">
        <ele>868.207764</ele>
        <time>2013-09-11T16:45:29Z</time>
      </trkpt>
      <trkpt lat="38.79389" lon="15.21724">
        <ele>868.207764</ele>
        <time>2013-09-11T16:45:30Z</time>
      </trkpt>
      <trkpt lat="38.79385" lon="15.21719">
        <ele>870.130371</ele>
        <time>2013-09-11T16:45:44Z</time>
      </trkpt>
      <trkpt lat="38.79379" lon="15.21711">
        <ele>873.495117</ele>
        <time>2013-09-11T16:45:57Z</time>
      </trkpt>
      <trkpt lat="38.79369" lon="15.21698">
        <ele>874.456299</ele>
        <time>2013-09-11T16:46:18Z</time>
      </trkpt>
      <trkpt lat="38.79361" lon="15.21694">
        <ele>874.937012</ele>
        <time>2013-09-11T16:46:35Z</time>
      </trkpt>
      <trkpt lat="38.79362" lon="15.21692">
        <ele>874.456299</ele>
        <time>2013-09-11T16:46:52Z</time>
      </trkpt>
      <trkpt lat="38.79363" lon="15.21691">
        <ele>875.898193</ele>
        <time>2013-09-11T16:47:45Z</time>
      </trkpt>
      <trkpt lat="38.79363" lon="15.2169">
        <ele>876.37915</ele>
        <time>2013-09-11T16:48:05Z</time>
      </trkpt>
      <trkpt lat="38.79362" lon="15.21691">
        <ele>875.898193</ele>
        <time>2013-09-11T16:48:35Z</time>
      </trkpt>
      <trkpt lat="38.79362" lon="15.21691">
        <ele>875.41748</ele>
        <time>2013-09-11T16:50:12Z</time>
      </trkpt>
      <trkpt lat="38.79362" lon="15.21691">
        <ele>876.37915</ele>
        <time>2013-09-11T16:50:41Z</time>
      </trkpt>
      <trkpt lat="38.79366" lon="15.21689">
        <ele>877.340576</ele>
        <time>2013-09-11T16:50:58Z</time>
      </trkpt>
      <trkpt lat="38.79365" lon="15.21685">
        <ele>876.859863</ele>
        <time>2013-09-11T16:51:12Z</time>
      </trkpt>
      <trkpt lat="38.79364" lon="15.21685">
        <ele>877.340576</ele>
        <time>2013-09-11T16:51:32Z</time>
      </trkpt>
      <trkpt lat="38.79364" lon="15.21685">
        <ele>876.859863</ele>
        <time>2013-09-11T16:51:53Z</time>
      </trkpt>
      <trkpt lat="38.79363" lon="15.21682">
        <ele>877.340576</ele>
        <time>2013-09-11T16:52:17Z</time>
      </trkpt>
      <trkpt lat="38.79363" lon="15.21681">
        <ele>877.821045</ele>
        <time>2013-09-11T16:52:37Z</time>
      </trkpt>
      <trkpt lat="38.79362" lon="15.21678">
        <ele>877.821045</ele>
        <time>2013-09-11T16:53:02Z</time>
      </trkpt>
      <trkpt lat="38.7936" lon="15.21666">
        <ele>877.340576</ele>
        <time>2013-09-11T16:53:21Z</time>
      </trkpt>
      <trkpt lat="38.79355" lon="15.21651">
        <ele>877.821045</ele>
        <time>2013-09-11T16:53:38Z</time>
      </trkpt>
      <trkpt lat="38.79349" lon="15.21632">
        <ele>879.743652</ele>
        <time>2013-09-11T16:53:59Z</time>
      </trkpt>
      <trkpt lat="38.7934" lon="15.21611">
        <ele>881.66626</ele>
        <time>2013-09-11T16:54:23Z</time>
      </trkpt>
      <trkpt lat="38.79333" lon="15.21593">
        <ele>883.108154</ele>
        <time>2013-09-11T16:54:43Z</time>
      </trkpt>
      <trkpt lat="38.79328" lon="15.21571">
        <ele>884.550293</ele>
        <time>2013-09-11T16:55:05Z</time>
      </trkpt>
      <trkpt lat="38.79325" lon="15.21559">
        <ele>884.550293</ele>
        <time>2013-09-11T16:55:22Z</time>
      </trkpt>
      <trkpt lat="38.79318" lon="15.21543">
        <ele>886.4729</ele>
        <time>2013-09-11T16:55:40Z</time>
      </trkpt>
      <trkpt lat="38.79317" lon="15.2154">
        <ele>887.914795</ele>
        <time>2013-09-11T16:55:45Z</time>
      </trkpt>
      <trkpt lat="38.79312" lon="15.21531">
        <ele>890.798584</ele>
        <time>2013-09-11T16:56:03Z</time>
      </trkpt>
      <trkpt lat="38.7931" lon="15.21527">
        <ele>891.279297</ele>
        <time>2013-09-11T16:56:24Z</time>
      </trkpt>
      <trkpt lat="38.79309" lon="15.21519">
        <ele>892.72168</ele>
        <time>2013-09-11T16:56:44Z</time>
      </trkpt>
      <trkpt lat="38.79306" lon="15.21514">
        <ele>895.124756</ele>
        <time>2013-09-11T16:57:00Z</time>
      </trkpt>
      <trkpt lat="38.79306" lon="15.21507">
        <ele>896.086182</ele>
        <time>2013-09-11T16:57:15Z</time>
      </trkpt>
      <trkpt lat="38.793" lon="15.21497">
        <ele>899.450684</ele>
        <time>2013-09-11T16:57:34Z</time>
      </trkpt>
      <trkpt lat="38.79295" lon="15.2149">
        <ele>902.334473</ele>
        <time>2013-09-11T16:57:51Z</time>
      </trkpt>
      <trkpt lat="38.79291" lon="15.21482">
        <ele>905.218506</ele>
        <time>2013-09-11T16:58:07Z</time>
      </trkpt>
      <trkpt lat="38.79285" lon="15.21471">
        <ele>908.102783</ele>
        <time>2013-09-11T16:58:24Z</time>
      </trkpt>
      <trkpt lat="38.79281" lon="15.2146">
        <ele>910.505859</ele>
        <time>2013-09-11T16:58:42Z</time>
      </trkpt>
      <trkpt lat="38.79276" lon="15.21449">
        <ele>912.428467</ele>
        <time>2013-09-11T16:58:58Z</time>
      </trkpt>
      <trkpt lat="38.79272" lon="15.21438">
        <ele>915.3125</ele>
        <time>2013-09-11T16:59:13Z</time>
      </trkpt>
      <trkpt lat="38.79269" lon="15.21433">
        <ele>915.3125</ele>
        <time>2013-09-11T16:59:30Z</time>
      </trkpt>
      <trkpt lat="38.79267" lon="15.21424">
        <ele>918.196289</ele>
        <time>2013-09-11T16:59:46Z</time>
      </trkpt>
      <trkpt lat="38.79267" lon="15.21422">
        <ele>918.677002</ele>
        <time>2013-09-11T16:59:48Z</time>
      </trkpt>
      <trkpt lat="38.79261" lon="15.21405">
        <ele>920.599609</ele>
        <time>2013-09-11T17:00:08Z</time>
      </trkpt>
      <trkpt lat="38.79255" lon="15.21398">
        <ele>920.599609</ele>
        <time>2013-09-11T17:00:18Z</time>
      </trkpt>
      <trkpt lat="38.79241" lon="15.21384">
        <ele>921.080322</ele>
        <time>2013-09-11T17:00:37Z</time>
      </trkpt>
      <trkpt lat="38.79234" lon="15.21368">
        <ele>919.157715</ele>
        <time>2013-09-11T17:00:55Z</time>
      </trkpt>
      <trkpt lat="38.79235" lon="15.21369">
        <ele>918.196289</ele>
        <time>2013-09-11T17:01:14Z</time>
      </trkpt>
      <trkpt lat="38.79235" lon="15.21369">
        <ele>919.638428</ele>
        <time>2013-09-11T17:02:03Z</time>
      </trkpt>
      <trkpt lat="38.79236" lon="15.21369">
        <ele>918.677002</ele>
        <time>2013-09-11T17:02:59Z</time>
      </trkpt>
      <trkpt lat="38.79235" lon="15.21369">
        <ele>918.677002</ele>
        <time>2013-09-11T17:03:29Z</time>
      </trkpt>
      <trkpt lat="38.79235" lon="15.21368">
        <ele>919.638428</ele>
        <time>2013-09-11T17:04:12Z</time>
      </trkpt>
      <trkpt lat="38.79235" lon="15.21369">
        <ele>919.638428</ele>
        <time>2013-09-11T17:04:51Z</time>
      </trkpt>
      <trkpt lat="38.79236" lon="15.21369">
        <ele>920.118896</ele>
        <time>2013-09-11T17:05:18Z</time>
      </trkpt>
      <trkpt lat="38.79236" lon="15.21369">
        <ele>920.118896</ele>
        <time>2013-09-11T17:05:55Z</time>
      </trkpt>
      <trkpt lat="38.79235" lon="15.21369">
        <ele>920.118896</ele>
        <time>2013-09-11T17:06:34Z</time>
      </trkpt>
      <trkpt lat="38.79235" lon="15.21369">
        <ele>920.118896</ele>
        <time>2013-09-11T17:07:09Z</time>
      </trkpt>
      <trkpt lat="38.79235" lon="15.2137">
        <ele>920.599609</ele>
        <time>2013-09-11T17:07:36Z</time>
      </trkpt>
      <trkpt lat="38.79235" lon="15.21369">
        <ele>920.599609</ele>
        <time>2013-09-11T17:07:50Z</time>
      </trkpt>
      <trkpt lat="38.79235" lon="15.21369">
        <ele>919.638428</ele>
        <time>2013-09-11T17:08:15Z</time>
      </trkpt>
      <trkpt lat="38.79235" lon="15.21368">
        <ele>920.118896</ele>
        <time>2013-09-11T17:08:39Z</time>
      </trkpt>
      <trkpt lat="38.79235" lon="15.21368">
        <ele>920.599609</ele>
        <time>2013-09-11T17:09:20Z</time>
      </trkpt>
      <trkpt lat="38.79235" lon="15.21369">
        <ele>918.677002</ele>
        <time>2013-09-11T17:09:44Z</time>
      </trkpt>
      <trkpt lat="38.79235" lon="15.21369">
        <ele>921.080322</ele>
        <time>2013-09-11T17:09:46Z</time>
      </trkpt>
      <trkpt lat="38.79235" lon="15.21368">
        <ele>920.118896</ele>
        <time>2013-09-11T17:10:11Z</time>
      </trkpt>
      <trkpt lat="38.79235" lon="15.21368">
        <ele>920.118896</ele>
        <time>2013-09-11T17:10:16Z</time>
      </trkpt>
      <trkpt lat="38.79235" lon="15.21368">
        <ele>920.118896</ele>
        <time>2013-09-11T17:10:39Z</time>
      </trkpt>
      <trkpt lat="38.79236" lon="15.2137">
        <ele>920.118896</ele>
        <time>2013-09-11T17:11:22Z</time>
      </trkpt>
      <trkpt lat="38.79235" lon="15.21369">
        <ele>919.638428</ele>
        <time>2013-09-11T17:11:59Z</time>
      </trkpt>
      <trkpt lat="38.79233" lon="15.21372">
        <ele>919.638428</ele>
        <time>2013-09-11T17:12:24Z</time>
      </trkpt>
      <trkpt lat="38.79235" lon="15.21378">
        <ele>920.599609</ele>
        <time>2013-09-11T17:12:38Z</time>
      </trkpt>
      <trkpt lat="38.79239" lon="15.21379">
        <ele>921.080322</ele>
        <time>2013-09-11T17:12:51Z</time>
      </trkpt>
      <trkpt lat="38.79237" lon="15.2138">
        <ele>921.080322</ele>
        <time>2013-09-11T17:13:15Z</time>
      </trkpt>
      <trkpt lat="38.79239" lon="15.2138">
        <ele>921.080322</ele>
        <time>2013-09-11T17:13:31Z</time>
      </trkpt>
      <trkpt lat="38.79239" lon="15.2138">
        <ele>920.599609</ele>
        <time>2013-09-11T17:13:48Z</time>
      </trkpt>
      <trkpt lat="38.79235" lon="15.21382">
        <ele>919.638428</ele>
        <time>2013-09-11T17:14:04Z</time>
      </trkpt>
      <trkpt lat="38.79234" lon="15.21383">
        <ele>918.196289</ele>
        <time>2013-09-11T17:14:26Z</time>
      </trkpt>
      <trkpt lat="38.79233" lon="15.21384">
        <ele>918.677002</ele>
        <time>2013-09-11T17:16:31Z</time>
      </trkpt>
      <trkpt lat="38.79233" lon="15.21382">
        <ele>919.638428</ele>
        <time>2013-09-11T17:17:48Z</time>
      </trkpt>
      <trkpt lat="38.79233" lon="15.2138">
        <ele>920.118896</ele>
        <time>2013-09-11T17:18:01Z</time>
      </trkpt>
      <trkpt lat="38.79236" lon="15.21374">
        <ele>920.599609</ele>
        <time>2013-09-11T17:18:15Z</time>
      </trkpt>
      <trkpt lat="38.79235" lon="15.21368">
        <ele>919.638428</ele>
        <time>2013-09-11T17:18:32Z</time>
      </trkpt>
      <trkpt lat="38.79236" lon="15.21371">
        <ele>919.157715</ele>
        <time>2013-09-11T17:19:13Z</time>
      </trkpt>
      <trkpt lat="38.79236" lon="15.21369">
        <ele>920.118896</ele>
        <time>2013-09-11T17:19:34Z</time>
      </trkpt>
      <trkpt lat="38.79236" lon="15.21369">
        <ele>920.118896</ele>
        <time>2013-09-11T17:19:35Z</time>
      </trkpt>
      <trkpt lat="38.79235" lon="15.21368">
        <ele>919.638428</ele>
        <time>2013-09-11T17:20:14Z</time>
      </trkpt>
      <trkpt lat="38.79236" lon="15.2137">
        <ele>919.157715</ele>
        <time>2013-09-11T17:21:03Z</time>
      </trkpt>
      <trkpt lat="38.79235" lon="15.21368">
        <ele>919.157715</ele>
        <time>2013-09-11T17:21:44Z</time>
      </trkpt>
      <trkpt lat="38.79235" lon="15.21367">
        <ele>919.638428</ele>
        <time>2013-09-11T17:22:25Z</time>
      </trkpt>
      <trkpt lat="38.79235" lon="15.21367">
        <ele>920.118896</ele>
        <time>2013-09-11T17:23:07Z</time>
      </trkpt>
      <trkpt lat="38.79235" lon="15.21367">
        <ele>917.715576</ele>
        <time>2013-09-11T17:23:12Z</time>
      </trkpt>
      <trkpt lat="38.79235" lon="15.21367">
        <ele>919.638428</ele>
        <time>2013-09-11T17:23:42Z</time>
      </trkpt>
      <trkpt lat="38.79235" lon="15.21367">
        <ele>918.196289</ele>
        <time>2013-09-11T17:24:01Z</time>
      </trkpt>
      <trkpt lat="38.79236" lon="15.21368">
        <ele>919.638428</ele>
        <time>2013-09-11T17:25:57Z</time>
      </trkpt>
      <trkpt lat="38.79236" lon="15.21369">
        <ele>920.118896</ele>
        <time>2013-09-11T17:26:57Z</time>
      </trkpt>
      <trkpt lat="38.79236" lon="15.21368">
        <ele>919.157715</ele>
        <time>2013-09-11T17:27:21Z</time>
      </trkpt>
      <trkpt lat="38.79236" lon="15.21369">
        <ele>920.118896</ele>
        <time>2013-09-11T17:28:05Z</time>
      </trkpt>
      <trkpt lat="38.79236" lon="15.2137">
        <ele>919.638428</ele>
        <time>2013-09-11T17:29:15Z</time>
      </trkpt>
      <trkpt lat="38.79236" lon="15.21367">
        <ele>919.638428</ele>
        <time>2013-09-11T17:30:33Z</time>
      </trkpt>
      <trkpt lat="38.79235" lon="15.21367">
        <ele>918.196289</ele>
        <time>2013-09-11T17:30:36Z</time>
      </trkpt>
      <trkpt lat="38.79235" lon="15.21366">
        <ele>918.196289</ele>
        <time>2013-09-11T17:31:04Z</time>
      </trkpt>
      <trkpt lat="38.79234" lon="15.21369">
        <ele>918.196289</ele>
        <time>2013-09-11T17:31:52Z</time>
      </trkpt>
      <trkpt lat="38.79232" lon="15.21371">
        <ele>918.677002</ele>
        <time>2013-09-11T17:32:10Z</time>
      </trkpt>
      <trkpt lat="38.79231" lon="15.21377">
        <ele>918.677002</ele>
        <time>2013-09-11T17:32:41Z</time>
      </trkpt>
      <trkpt lat="38.79233" lon="15.21379">
        <ele>919.157715</ele>
        <time>2013-09-11T17:33:00Z</time>
      </trkpt>
      <trkpt lat="38.79234" lon="15.21377">
        <ele>919.638428</ele>
        <time>2013-09-11T17:33:57Z</time>
      </trkpt>
      <trkpt lat="38.79233" lon="15.21378">
        <ele>918.677002</ele>
        <time>2013-09-11T17:34:20Z</time>
      </trkpt>
      <trkpt lat="38.79233" lon="15.21378">
        <ele>919.157715</ele>
        <time>2013-09-11T17:35:15Z</time>
      </trkpt>
      <trkpt lat="38.79233" lon="15.21379">
        <ele>919.157715</ele>
        <time>2013-09-11T17:35:46Z</time>
      </trkpt>
      <trkpt lat="38.79231" lon="15.21378">
        <ele>918.196289</ele>
        <time>2013-09-11T17:36:33Z</time>
      </trkpt>
      <trkpt lat="38.79233" lon="15.21371">
        <ele>918.196289</ele>
        <time>2013-09-11T17:36:50Z</time>
      </trkpt>
      <trkpt lat="38.79236" lon="15.21367">
        <ele>918.196289</ele>
        <time>2013-09-11T17:37:09Z</time>
      </trkpt>
      <trkpt lat="38.79237" lon="15.21368">
        <ele>918.196289</ele>
        <time>2013-09-11T17:37:46Z</time>
      </trkpt>
      <trkpt lat="38.79236" lon="15.21366">
        <ele>917.715576</ele>
        <time>2013-09-11T17:38:19Z</time>
      </trkpt>
      <trkpt lat="38.79236" lon="15.21367">
        <ele>917.715576</ele>
        <time>2013-09-11T17:39:09Z</time>
      </trkpt>
      <trkpt lat="38.79236" lon="15.21368">
        <ele>917.715576</ele>
        <time>2013-09-11T17:39:55Z</time>
      </trkpt>
      <trkpt lat="38.79235" lon="15.21369">
        <ele>918.677002</ele>
        <time>2013-09-11T17:41:44Z</time>
      </trkpt>
      <trkpt lat="38.79233" lon="15.21371">
        <ele>918.677002</ele>
        <time>2013-09-11T17:42:01Z</time>
      </trkpt>
      <trkpt lat="38.79233" lon="15.2137">
        <ele>918.196289</ele>
        <time>2013-09-11T17:42:42Z</time>
      </trkpt>
      <trkpt lat="38.79234" lon="15.21369">
        <ele>918.677002</ele>
        <time>2013-09-11T17:43:10Z</time>
      </trkpt>
      <trkpt lat="38.79236" lon="15.21369">
        <ele>919.157715</ele>
        <time>2013-09-11T17:43:29Z</time>
      </trkpt>
      <trkpt lat="38.79236" lon="15.2137">
        <ele>919.638428</ele>
        <time>2013-09-11T17:44:39Z</time>
      </trkpt>
      <trkpt lat="38.79234" lon="15.21371">
        <ele>919.157715</ele>
        <time>2013-09-11T17:45:33Z</time>
      </trkpt>
      <trkpt lat="38.79233" lon="15.21373">
        <ele>920.118896</ele>
        <time>2013-09-11T17:46:00Z</time>
      </trkpt>
      <trkpt lat="38.79233" lon="15.21372">
        <ele>919.638428</ele>
        <time>2013-09-11T17:46:34Z</time>
      </trkpt>
      <trkpt lat="38.79237" lon="15.21371">
        <ele>920.118896</ele>
        <time>2013-09-11T17:47:00Z</time>
      </trkpt>
      <trkpt lat="38.79237" lon="15.21371">
        <ele>920.118896</ele>
        <time>2013-09-11T17:47:54Z</time>
      </trkpt>
      <trkpt lat="38.79235" lon="15.21369">
        <ele>919.638428</ele>
        <time>2013-09-11T17:48:13Z</time>
      </trkpt>
      <trkpt lat="38.79235" lon="15.21371">
        <ele>920.118896</ele>
        <time>2013-09-11T17:48:34Z</time>
      </trkpt>
      <trkpt lat="38.79235" lon="15.21371">
        <ele>920.118896</ele>
        <time>2013-09-11T17:49:12Z</time>
      </trkpt>
      <trkpt lat="38.79235" lon="15.21372">
        <ele>920.599609</ele>
        <time>2013-09-11T17:49:46Z</time>
      </trkpt>
      <trkpt lat="38.79235" lon="15.21371">
        <ele>920.118896</ele>
        <time>2013-09-11T17:50:10Z</time>
      </trkpt>
      <trkpt lat="38.79235" lon="15.21371">
        <ele>920.118896</ele>
        <time>2013-09-11T17:50:41Z</time>
      </trkpt>
      <trkpt lat="38.79235" lon="15.21372">
        <ele>920.599609</ele>
        <time>2013-09-11T17:51:10Z</time>
      </trkpt>
      <trkpt lat="38.79236" lon="15.21367">
        <ele>920.599609</ele>
        <time>2013-09-11T17:51:33Z</time>
      </trkpt>
      <trkpt lat="38.79236" lon="15.21366">
        <ele>921.080322</ele>
        <time>2013-09-11T17:52:23Z</time>
      </trkpt>
      <trkpt lat="38.79234" lon="15.21369">
        <ele>920.599609</ele>
        <time>2013-09-11T17:53:58Z</time>
      </trkpt>
      <trkpt lat="38.79235" lon="15.2137">
        <ele>920.599609</ele>
        <time>2013-09-11T17:54:16Z</time>
      </trkpt>
      <trkpt lat="38.79236" lon="15.21371">
        <ele>920.118896</ele>
        <time>2013-09-11T17:54:45Z</time>
      </trkpt>
      <trkpt lat="38.79235" lon="15.21373">
        <ele>920.599609</ele>
        <time>2013-09-11T17:55:05Z</time>
      </trkpt>
      <trkpt lat="38.79234" lon="15.21375">
        <ele>920.118896</ele>
        <time>2013-09-11T17:55:24Z</time>
      </trkpt>
      <trkpt lat="38.79233" lon="15.21378">
        <ele>920.118896</ele>
        <time>2013-09-11T17:55:41Z</time>
      </trkpt>
      <trkpt lat="38.79228" lon="15.2138">
        <ele>917.715576</ele>
        <time>2013-09-11T17:56:00Z</time>
      </trkpt>
      <trkpt lat="38.79222" lon="15.2138">
        <ele>916.754395</ele>
        <time>2013-09-11T17:56:21Z</time>
      </trkpt>
      <trkpt lat="38.79214" lon="15.21378">
        <ele>915.3125</ele>
        <time>2013-09-11T17:56:42Z</time>
      </trkpt>
      <trkpt lat="38.79212" lon="15.21381">
        <ele>912.90918</ele>
        <time>2013-09-11T17:56:53Z</time>
      </trkpt>
      <trkpt lat="38.79214" lon="15.21389">
        <ele>909.544678</ele>
        <time>2013-09-11T17:57:09Z</time>
      </trkpt>
      <trkpt lat="38.79216" lon="15.21398">
        <ele>906.6604</ele>
        <time>2013-09-11T17:57:28Z</time>
      </trkpt>
      <trkpt lat="38.79212" lon="15.21402">
        <ele>905.699219</ele>
        <time>2013-09-11T17:57:45Z</time>
      </trkpt>
      <trkpt lat="38.79204" lon="15.21401">
        <ele>903.776611</ele>
        <time>2013-09-11T17:58:04Z</time>
      </trkpt>
      <trkpt lat="38.792" lon="15.21403">
        <ele>900.892578</ele>
        <time>2013-09-11T17:58:20Z</time>
      </trkpt>
      <trkpt lat="38.79197" lon="15.21404">
        <ele>900.412109</ele>
        <time>2013-09-11T17:58:41Z</time>
      </trkpt>
      <trkpt lat="38.79192" lon="15.21405">
        <ele>898.008789</ele>
        <time>2013-09-11T17:58:50Z</time>
      </trkpt>
      <trkpt lat="38.79189" lon="15.21406">
        <ele>896.086182</ele>
        <time>2013-09-11T17:58:59Z</time>
      </trkpt>
      <trkpt lat="38.79181" lon="15.21407">
        <ele>895.605469</ele>
        <time>2013-09-11T17:59:16Z</time>
      </trkpt>
      <trkpt lat="38.79176" lon="15.21408">
        <ele>892.240967</ele>
        <time>2013-09-11T17:59:26Z</time>
      </trkpt>
      <trkpt lat="38.79175" lon="15.21408">
        <ele>891.76001</ele>
        <time>2013-09-11T17:59:27Z</time>
      </trkpt>
      <trkpt lat="38.79169" lon="15.2141">
        <ele>888.876221</ele>
        <time>2013-09-11T17:59:39Z</time>
      </trkpt>
      <trkpt lat="38.79158" lon="15.21413">
        <ele>885.511475</ele>
        <time>2013-09-11T18:00:00Z</time>
      </trkpt>
      <trkpt lat="38.79149" lon="15.21417">
        <ele>882.627686</ele>
        <time>2013-09-11T18:00:17Z</time>
      </trkpt>
      <trkpt lat="38.7914" lon="15.21418">
        <ele>879.262939</ele>
        <time>2013-09-11T18:00:31Z</time>
      </trkpt>
      <trkpt lat="38.79134" lon="15.2142">
        <ele>876.37915</ele>
        <time>2013-09-11T18:00:42Z</time>
      </trkpt>
      <trkpt lat="38.79129" lon="15.21418">
        <ele>874.937012</ele>
        <time>2013-09-11T18:00:50Z</time>
      </trkpt>
      <trkpt lat="38.79122" lon="15.21413">
        <ele>871.572266</ele>
        <time>2013-09-11T18:01:03Z</time>
      </trkpt>
      <trkpt lat="38.79116" lon="15.21409">
        <ele>869.169189</ele>
        <time>2013-09-11T18:01:13Z</time>
      </trkpt>
      <trkpt lat="38.79112" lon="15.21406">
        <ele>867.727051</ele>
        <time>2013-09-11T18:01:19Z</time>
      </trkpt>
      <trkpt lat="38.79105" lon="15.21404">
        <ele>864.843262</ele>
        <time>2013-09-11T18:01:31Z</time>
      </trkpt>
      <trkpt lat="38.79101" lon="15.21399">
        <ele>861.959473</ele>
        <time>2013-09-11T18:01:40Z</time>
      </trkpt>
      <trkpt lat="38.79093" lon="15.21391">
        <ele>858.594482</ele>
        <time>2013-09-11T18:01:54Z</time>
      </trkpt>
      <trkpt lat="38.79086" lon="15.21381">
        <ele>856.671875</ele>
        <time>2013-09-11T18:02:10Z</time>
      </trkpt>
      <trkpt lat="38.79077" lon="15.21385">
        <ele>853.788086</ele>
        <time>2013-09-11T18:02:28Z</time>
      </trkpt>
      <trkpt lat="38.79072" lon="15.21392">
        <ele>852.345947</ele>
        <time>2013-09-11T18:02:37Z</time>
      </trkpt>
      <trkpt lat="38.79066" lon="15.21404">
        <ele>848.981445</ele>
        <time>2013-09-11T18:02:48Z</time>
      </trkpt>
      <trkpt lat="38.79064" lon="15.21408">
        <ele>848.981445</ele>
        <time>2013-09-11T18:03:02Z</time>
      </trkpt>
      <trkpt lat="38.79066" lon="15.21407">
        <ele>848.981445</ele>
        <time>2013-09-11T18:04:00Z</time>
      </trkpt>
      <trkpt lat="38.79065" lon="15.21408">
        <ele>848.500732</ele>
        <time>2013-09-11T18:04:33Z</time>
      </trkpt>
      <trkpt lat="38.79065" lon="15.21409">
        <ele>848.981445</ele>
        <time>2013-09-11T18:05:01Z</time>
      </trkpt>
      <trkpt lat="38.79065" lon="15.21408">
        <ele>848.500732</ele>
        <time>2013-09-11T18:05:36Z</time>
      </trkpt>
      <trkpt lat="38.79064" lon="15.21409">
        <ele>848.981445</ele>
        <time>2013-09-11T18:05:58Z</time>
      </trkpt>
      <trkpt lat="38.79059" lon="15.21419">
        <ele>847.058838</ele>
        <time>2013-09-11T18:06:14Z</time>
      </trkpt>
      <trkpt lat="38.79055" lon="15.21425">
        <ele>845.616943</ele>
        <time>2013-09-11T18:06:30Z</time>
      </trkpt>
      <trkpt lat="38.79054" lon="15.2143">
        <ele>845.13623</ele>
        <time>2013-09-11T18:06:47Z</time>
      </trkpt>
      <trkpt lat="38.79058" lon="15.21429">
        <ele>841.771484</ele>
        <time>2013-09-11T18:07:06Z</time>
      </trkpt>
      <trkpt lat="38.79061" lon="15.21439">
        <ele>838.406982</ele>
        <time>2013-09-11T18:07:23Z</time>
      </trkpt>
      <trkpt lat="38.7906" lon="15.21445">
        <ele>836.964844</ele>
        <time>2013-09-11T18:07:34Z</time>
      </trkpt>
      <trkpt lat="38.79056" lon="15.21451">
        <ele>834.561768</ele>
        <time>2013-09-11T18:07:48Z</time>
      </trkpt>
      <trkpt lat="38.79054" lon="15.21451">
        <ele>833.119629</ele>
        <time>2013-09-11T18:07:51Z</time>
      </trkpt>
      <trkpt lat="38.79052" lon="15.21456">
        <ele>831.677734</ele>
        <time>2013-09-11T18:08:06Z</time>
      </trkpt>
      <trkpt lat="38.79052" lon="15.2146">
        <ele>828.793945</ele>
        <time>2013-09-11T18:08:18Z</time>
      </trkpt>
      <trkpt lat="38.79054" lon="15.21466">
        <ele>827.351807</ele>
        <time>2013-09-11T18:08:36Z</time>
      </trkpt>
      <trkpt lat="38.79054" lon="15.21467">
        <ele>828.313232</ele>
        <time>2013-09-11T18:08:41Z</time>
      </trkpt>
      <trkpt lat="38.79052" lon="15.21468">
        <ele>825.909668</ele>
        <time>2013-09-11T18:08:51Z</time>
      </trkpt>
      <trkpt lat="38.79053" lon="15.21474">
        <ele>823.025879</ele>
        <time>2013-09-11T18:09:05Z</time>
      </trkpt>
      <trkpt lat="38.79058" lon="15.21482">
        <ele>820.141846</ele>
        <time>2013-09-11T18:09:21Z</time>
      </trkpt>
      <trkpt lat="38.7906" lon="15.21486">
        <ele>817.258057</ele>
        <time>2013-09-11T18:09:31Z</time>
      </trkpt>
      <trkpt lat="38.79065" lon="15.21492">
        <ele>816.296631</ele>
        <time>2013-09-11T18:09:46Z</time>
      </trkpt>
      <trkpt lat="38.79067" lon="15.21496">
        <ele>813.893311</ele>
        <time>2013-09-11T18:09:54Z</time>
      </trkpt>
      <trkpt lat="38.79069" lon="15.21499">
        <ele>812.451416</ele>
        <time>2013-09-11T18:09:58Z</time>
      </trkpt>
      <trkpt lat="38.79072" lon="15.21508">
        <ele>809.08667</ele>
        <time>2013-09-11T18:10:11Z</time>
      </trkpt>
      <trkpt lat="38.79075" lon="15.21515">
        <ele>805.722168</ele>
        <time>2013-09-11T18:10:23Z</time>
      </trkpt>
      <trkpt lat="38.79077" lon="15.21524">
        <ele>802.838135</ele>
        <time>2013-09-11T18:10:36Z</time>
      </trkpt>
      <trkpt lat="38.7908" lon="15.21532">
        <ele>799.954346</ele>
        <time>2013-09-11T18:10:47Z</time>
      </trkpt>
      <trkpt lat="38.79082" lon="15.21539">
        <ele>796.589844</ele>
        <time>2013-09-11T18:10:57Z</time>
      </trkpt>
      <trkpt lat="38.79084" lon="15.21544">
        <ele>794.186279</ele>
        <time>2013-09-11T18:11:05Z</time>
      </trkpt>
      <trkpt lat="38.79088" lon="15.21555">
        <ele>790.821533</ele>
        <time>2013-09-11T18:11:21Z</time>
      </trkpt>
      <trkpt lat="38.79088" lon="15.21557">
        <ele>790.341064</ele>
        <time>2013-09-11T18:11:23Z</time>
      </trkpt>
      <trkpt lat="38.7909" lon="15.21563">
        <ele>786.976318</ele>
        <time>2013-09-11T18:11:32Z</time>
      </trkpt>
      <trkpt lat="38.79091" lon="15.2157">
        <ele>783.611816</ele>
        <time>2013-09-11T18:11:41Z</time>
      </trkpt>
      <trkpt lat="38.79091" lon="15.2157">
        <ele>784.092529</ele>
        <time>2013-09-11T18:11:42Z</time>
      </trkpt>
      <trkpt lat="38.79092" lon="15.21575">
        <ele>781.689209</ele>
        <time>2013-09-11T18:11:48Z</time>
      </trkpt>
      <trkpt lat="38.79094" lon="15.21584">
        <ele>779.285645</ele>
        <time>2013-09-11T18:12:00Z</time>
      </trkpt>
      <trkpt lat="38.79096" lon="15.21593">
        <ele>775.921143</ele>
        <time>2013-09-11T18:12:11Z</time>
      </trkpt>
      <trkpt lat="38.79097" lon="15.21597">
        <ele>775.44043</ele>
        <time>2013-09-11T18:12:15Z</time>
      </trkpt>
      <trkpt lat="38.79099" lon="15.21606">
        <ele>771.595215</ele>
        <time>2013-09-11T18:12:25Z</time>
      </trkpt>
      <trkpt lat="38.79101" lon="15.21615">
        <ele>768.711426</ele>
        <time>2013-09-11T18:12:38Z</time>
      </trkpt>
      <trkpt lat="38.79103" lon="15.21624">
        <ele>765.346924</ele>
        <time>2013-09-11T18:12:48Z</time>
      </trkpt>
      <trkpt lat="38.79104" lon="15.21628">
        <ele>762.943359</ele>
        <time>2013-09-11T18:12:53Z</time>
      </trkpt>
      <trkpt lat="38.79107" lon="15.21639">
        <ele>759.578857</ele>
        <time>2013-09-11T18:13:09Z</time>
      </trkpt>
      <trkpt lat="38.79108" lon="15.21643">
        <ele>758.617432</ele>
        <time>2013-09-11T18:13:13Z</time>
      </trkpt>
      <trkpt lat="38.79109" lon="15.2165">
        <ele>755.25293</ele>
        <time>2013-09-11T18:13:23Z</time>
      </trkpt>
      <trkpt lat="38.7911" lon="15.21657">
        <ele>751.407715</ele>
        <time>2013-09-11T18:13:33Z</time>
      </trkpt>
      <trkpt lat="38.79111" lon="15.21667">
        <ele>748.043213</ele>
        <time>2013-09-11T18:13:45Z</time>
      </trkpt>
      <trkpt lat="38.79112" lon="15.21676">
        <ele>745.158936</ele>
        <time>2013-09-11T18:13:58Z</time>
      </trkpt>
      <trkpt lat="38.79113" lon="15.21682">
        <ele>741.794434</ele>
        <time>2013-09-11T18:14:07Z</time>
      </trkpt>
      <trkpt lat="38.79114" lon="15.21686">
        <ele>740.352539</ele>
        <time>2013-09-11T18:14:12Z</time>
      </trkpt>
      <trkpt lat="38.79115" lon="15.21695">
        <ele>736.987793</ele>
        <time>2013-09-11T18:14:23Z</time>
      </trkpt>
      <trkpt lat="38.79116" lon="15.21705">
        <ele>732.662109</ele>
        <time>2013-09-11T18:14:35Z</time>
      </trkpt>
      <trkpt lat="38.79116" lon="15.21711">
        <ele>729.297119</ele>
        <time>2013-09-11T18:14:41Z</time>
      </trkpt>
      <trkpt lat="38.79117" lon="15.21721">
        <ele>726.41333</ele>
        <time>2013-09-11T18:14:53Z</time>
      </trkpt>
      <trkpt lat="38.79118" lon="15.21726">
        <ele>723.048828</ele>
        <time>2013-09-11T18:15:00Z</time>
      </trkpt>
      <trkpt lat="38.79118" lon="15.21732">
        <ele>720.164795</ele>
        <time>2013-09-11T18:15:08Z</time>
      </trkpt>
      <trkpt lat="38.7912" lon="15.21741">
        <ele>716.800293</ele>
        <time>2013-09-11T18:15:19Z</time>
      </trkpt>
      <trkpt lat="38.7912" lon="15.21746">
        <ele>714.877441</ele>
        <time>2013-09-11T18:15:24Z</time>
      </trkpt>
      <trkpt lat="38.79121" lon="15.21752">
        <ele>711.512939</ele>
        <time>2013-09-11T18:15:31Z</time>
      </trkpt>
      <trkpt lat="38.79121" lon="15.21753">
        <ele>711.032227</ele>
        <time>2013-09-11T18:15:32Z</time>
      </trkpt>
      <trkpt lat="38.79122" lon="15.21759">
        <ele>709.590332</ele>
        <time>2013-09-11T18:15:38Z</time>
      </trkpt>
      <trkpt lat="38.79122" lon="15.21762">
        <ele>707.667725</ele>
        <time>2013-09-11T18:15:41Z</time>
      </trkpt>
      <trkpt lat="38.79123" lon="15.21766">
        <ele>704.783691</ele>
        <time>2013-09-11T18:15:47Z</time>
      </trkpt>
      <trkpt lat="38.79123" lon="15.21767">
        <ele>704.783691</ele>
        <time>2013-09-11T18:15:48Z</time>
      </trkpt>
      <trkpt lat="38.79125" lon="15.21777">
        <ele>701.899902</ele>
        <time>2013-09-11T18:15:59Z</time>
      </trkpt>
      <trkpt lat="38.79126" lon="15.21784">
        <ele>698.534912</ele>
        <time>2013-09-11T18:16:07Z</time>
      </trkpt>
      <trkpt lat="38.79126" lon="15.21788">
        <ele>695.17041</ele>
        <time>2013-09-11T18:16:12Z</time>
      </trkpt>
      <trkpt lat="38.79128" lon="15.21799">
        <ele>691.805908</ele>
        <time>2013-09-11T18:16:24Z</time>
      </trkpt>
      <trkpt lat="38.79131" lon="15.21809">
        <ele>688.441406</ele>
        <time>2013-09-11T18:16:34Z</time>
      </trkpt>
      <trkpt lat="38.79132" lon="15.21816">
        <ele>685.076904</ele>
        <time>2013-09-11T18:16:41Z</time>
      </trkpt>
      <trkpt lat="38.79133" lon="15.2182">
        <ele>683.153809</ele>
        <time>2013-09-11T18:16:45Z</time>
      </trkpt>
      <trkpt lat="38.79133" lon="15.21826">
        <ele>679.789307</ele>
        <time>2013-09-11T18:16:50Z</time>
      </trkpt>
      <trkpt lat="38.79135" lon="15.21838">
        <ele>677.38623</ele>
        <time>2013-09-11T18:16:59Z</time>
      </trkpt>
      <trkpt lat="38.79136" lon="15.21845">
        <ele>674.021484</ele>
        <time>2013-09-11T18:17:04Z</time>
      </trkpt>
      <trkpt lat="38.79137" lon="15.2185">
        <ele>671.137695</ele>
        <time>2013-09-11T18:17:08Z</time>
      </trkpt>
      <trkpt lat="38.79138" lon="15.21857">
        <ele>667.772705</ele>
        <time>2013-09-11T18:17:14Z</time>
      </trkpt>
      <trkpt lat="38.79139" lon="15.21867">
        <ele>664.408203</ele>
        <time>2013-09-11T18:17:21Z</time>
      </trkpt>
      <trkpt lat="38.7914" lon="15.21874">
        <ele>660.562988</ele>
        <time>2013-09-11T18:17:26Z</time>
      </trkpt>
      <trkpt lat="38.7914" lon="15.21878">
        <ele>658.640381</ele>
        <time>2013-09-11T18:17:29Z</time>
      </trkpt>
      <trkpt lat="38.79141" lon="15.21884">
        <ele>655.756592</ele>
        <time>2013-09-11T18:17:33Z</time>
      </trkpt>
      <trkpt lat="38.79141" lon="15.21885">
        <ele>655.275879</ele>
        <time>2013-09-11T18:17:34Z</time>
      </trkpt>
      <trkpt lat="38.79142" lon="15.21888">
        <ele>654.314697</ele>
        <time>2013-09-11T18:17:36Z</time>
      </trkpt>
      <trkpt lat="38.79142" lon="15.21891">
        <ele>652.391846</ele>
        <time>2013-09-11T18:17:38Z</time>
      </trkpt>
      <trkpt lat="38.79143" lon="15.219">
        <ele>649.988525</ele>
        <time>2013-09-11T18:17:46Z</time>
      </trkpt>
      <trkpt lat="38.79144" lon="15.21906">
        <ele>648.065918</ele>
        <time>2013-09-11T18:17:52Z</time>
      </trkpt>
      <trkpt lat="38.79144" lon="15.21911">
        <ele>645.662598</ele>
        <time>2013-09-11T18:17:56Z</time>
      </trkpt>
      <trkpt lat="38.79145" lon="15.21913">
        <ele>644.220703</ele>
        <time>2013-09-11T18:17:58Z</time>
      </trkpt>
      <trkpt lat="38.79145" lon="15.21921">
        <ele>640.855957</ele>
        <time>2013-09-11T18:18:05Z</time>
      </trkpt>
      <trkpt lat="38.79146" lon="15.21923">
        <ele>639.894775</ele>
        <time>2013-09-11T18:18:07Z</time>
      </trkpt>
      <trkpt lat="38.79147" lon="15.2193">
        <ele>636.530273</ele>
        <time>2013-09-11T18:18:14Z</time>
      </trkpt>
      <trkpt lat="38.79148" lon="15.21938">
        <ele>633.165283</ele>
        <time>2013-09-11T18:18:23Z</time>
      </trkpt>
      <trkpt lat="38.79147" lon="15.2194">
        <ele>632.204102</ele>
        <time>2013-09-11T18:18:25Z</time>
      </trkpt>
      <trkpt lat="38.79148" lon="15.2195">
        <ele>628.358887</ele>
        <time>2013-09-11T18:18:36Z</time>
      </trkpt>
      <trkpt lat="38.79149" lon="15.21955">
        <ele>625.474854</ele>
        <time>2013-09-11T18:18:42Z</time>
      </trkpt>
      <trkpt lat="38.79149" lon="15.21962">
        <ele>622.591064</ele>
        <time>2013-09-11T18:18:50Z</time>
      </trkpt>
      <trkpt lat="38.79149" lon="15.21963">
        <ele>622.110352</ele>
        <time>2013-09-11T18:18:51Z</time>
      </trkpt>
      <trkpt lat="38.79149" lon="15.21966">
        <ele>620.668457</ele>
        <time>2013-09-11T18:18:53Z</time>
      </trkpt>
      <trkpt lat="38.7915" lon="15.21971">
        <ele>617.78418</ele>
        <time>2013-09-11T18:18:58Z</time>
      </trkpt>
      <trkpt lat="38.7915" lon="15.2198">
        <ele>614.900391</ele>
        <time>2013-09-11T18:19:08Z</time>
      </trkpt>
      <trkpt lat="38.79151" lon="15.21987">
        <ele>611.055176</ele>
        <time>2013-09-11T18:19:15Z</time>
      </trkpt>
      <trkpt lat="38.79152" lon="15.21996">
        <ele>608.171387</ele>
        <time>2013-09-11T18:19:26Z</time>
      </trkpt>
      <trkpt lat="38.79152" lon="15.22">
        <ele>605.287354</ele>
        <time>2013-09-11T18:19:30Z</time>
      </trkpt>
      <trkpt lat="38.79153" lon="15.22011">
        <ele>601.922607</ele>
        <time>2013-09-11T18:19:41Z</time>
      </trkpt>
      <trkpt lat="38.79154" lon="15.22016">
        <ele>598.557861</ele>
        <time>2013-09-11T18:19:46Z</time>
      </trkpt>
      <trkpt lat="38.79154" lon="15.22019">
        <ele>597.59668</ele>
        <time>2013-09-11T18:19:48Z</time>
      </trkpt>
      <trkpt lat="38.79154" lon="15.22026">
        <ele>594.232178</ele>
        <time>2013-09-11T18:19:55Z</time>
      </trkpt>
      <trkpt lat="38.79154" lon="15.22027">
        <ele>593.751465</ele>
        <time>2013-09-11T18:19:56Z</time>
      </trkpt>
      <trkpt lat="38.79154" lon="15.22034">
        <ele>590.867432</ele>
        <time>2013-09-11T18:20:03Z</time>
      </trkpt>
      <trkpt lat="38.79154" lon="15.22036">
        <ele>589.90625</ele>
        <time>2013-09-11T18:20:05Z</time>
      </trkpt>
      <trkpt lat="38.79155" lon="15.22042">
        <ele>587.502686</ele>
        <time>2013-09-11T18:20:11Z</time>
      </trkpt>
      <trkpt lat="38.79155" lon="15.2205">
        <ele>584.138184</ele>
        <time>2013-09-11T18:20:19Z</time>
      </trkpt>
      <trkpt lat="38.79155" lon="15.22057">
        <ele>580.773682</ele>
        <time>2013-09-11T18:20:28Z</time>
      </trkpt>
      <trkpt lat="38.79154" lon="15.22063">
        <ele>577.40918</ele>
        <time>2013-09-11T18:20:35Z</time>
      </trkpt>
      <trkpt lat="38.79154" lon="15.22064">
        <ele>577.40918</ele>
        <time>2013-09-11T18:20:36Z</time>
      </trkpt>
      <trkpt lat="38.79154" lon="15.22067">
        <ele>575.486328</ele>
        <time>2013-09-11T18:20:39Z</time>
      </trkpt>
      <trkpt lat="38.79153" lon="15.22076">
        <ele>572.121826</ele>
        <time>2013-09-11T18:20:48Z</time>
      </trkpt>
      <trkpt lat="38.79153" lon="15.22078">
        <ele>570.679688</ele>
        <time>2013-09-11T18:20:50Z</time>
      </trkpt>
      <trkpt lat="38.79151" lon="15.22088">
        <ele>566.834473</ele>
        <time>2013-09-11T18:21:00Z</time>
      </trkpt>
      <trkpt lat="38.79151" lon="15.22093">
        <ele>563.950439</ele>
        <time>2013-09-11T18:21:04Z</time>
      </trkpt>
      <trkpt lat="38.7915" lon="15.22094">
        <ele>563.950439</ele>
        <time>2013-09-11T18:21:05Z</time>
      </trkpt>
      <trkpt lat="38.79149" lon="15.22101">
        <ele>560.105225</ele>
        <time>2013-09-11T18:21:13Z</time>
      </trkpt>
      <trkpt lat="38.79148" lon="15.22103">
        <ele>559.144043</ele>
        <time>2013-09-11T18:21:15Z</time>
      </trkpt>
      <trkpt lat="38.79147" lon="15.22112">
        <ele>555.779297</ele>
        <time>2013-09-11T18:21:28Z</time>
      </trkpt>
      <trkpt lat="38.79146" lon="15.22115">
        <ele>554.817871</ele>
        <time>2013-09-11T18:21:30Z</time>
      </trkpt>
      <trkpt lat="38.79146" lon="15.22118">
        <ele>553.375977</ele>
        <time>2013-09-11T18:21:33Z</time>
      </trkpt>
      <trkpt lat="38.79145" lon="15.22126">
        <ele>550.011475</ele>
        <time>2013-09-11T18:21:43Z</time>
      </trkpt>
      <trkpt lat="38.79145" lon="15.22129">
        <ele>548.569336</ele>
        <time>2013-09-11T18:21:46Z</time>
      </trkpt>
      <trkpt lat="38.79145" lon="15.22131">
        <ele>547.127441</ele>
        <time>2013-09-11T18:21:48Z</time>
      </trkpt>
      <trkpt lat="38.79144" lon="15.2214">
        <ele>543.282104</ele>
        <time>2013-09-11T18:21:57Z</time>
      </trkpt>
      <trkpt lat="38.79144" lon="15.22141">
        <ele>542.801514</ele>
        <time>2013-09-11T18:21:58Z</time>
      </trkpt>
      <trkpt lat="38.79144" lon="15.22145">
        <ele>541.359497</ele>
        <time>2013-09-11T18:22:02Z</time>
      </trkpt>
      <trkpt lat="38.79143" lon="15.22154">
        <ele>537.994995</ele>
        <time>2013-09-11T18:22:11Z</time>
      </trkpt>
      <trkpt lat="38.79142" lon="15.22162">
        <ele>534.149658</ele>
        <time>2013-09-11T18:22:19Z</time>
      </trkpt>
      <trkpt lat="38.79142" lon="15.22163">
        <ele>534.149658</ele>
        <time>2013-09-11T18:22:20Z</time>
      </trkpt>
      <trkpt lat="38.79142" lon="15.22169">
        <ele>531.746338</ele>
        <time>2013-09-11T18:22:25Z</time>
      </trkpt>
      <trkpt lat="38.79141" lon="15.22172">
        <ele>529.82373</ele>
        <time>2013-09-11T18:22:28Z</time>
      </trkpt>
      <trkpt lat="38.79141" lon="15.22176">
        <ele>527.42041</ele>
        <time>2013-09-11T18:22:32Z</time>
      </trkpt>
      <trkpt lat="38.79141" lon="15.22182">
        <ele>525.497803</ele>
        <time>2013-09-11T18:22:37Z</time>
      </trkpt>
      <trkpt lat="38.79141" lon="15.22191">
        <ele>522.613892</ele>
        <time>2013-09-11T18:22:46Z</time>
      </trkpt>
      <trkpt lat="38.79141" lon="15.22198">
        <ele>519.249268</ele>
        <time>2013-09-11T18:22:53Z</time>
      </trkpt>
      <trkpt lat="38.79144" lon="15.22207">
        <ele>515.884644</ele>
        <time>2013-09-11T18:23:02Z</time>
      </trkpt>
      <trkpt lat="38.79145" lon="15.22212">
        <ele>512.52002</ele>
        <time>2013-09-11T18:23:07Z</time>
      </trkpt>
      <trkpt lat="38.79145" lon="15.22213">
        <ele>512.52002</ele>
        <time>2013-09-11T18:23:08Z</time>
      </trkpt>
      <trkpt lat="38.79147" lon="15.2222">
        <ele>509.636108</ele>
        <time>2013-09-11T18:23:16Z</time>
      </trkpt>
      <trkpt lat="38.79149" lon="15.22225">
        <ele>506.271484</ele>
        <time>2013-09-11T18:23:22Z</time>
      </trkpt>
      <trkpt lat="38.79152" lon="15.22235">
        <ele>503.387451</ele>
        <time>2013-09-11T18:23:32Z</time>
      </trkpt>
      <trkpt lat="38.79154" lon="15.22244">
        <ele>500.50354</ele>
        <time>2013-09-11T18:23:41Z</time>
      </trkpt>
      <trkpt lat="38.79154" lon="15.22246">
        <ele>499.061523</ele>
        <time>2013-09-11T18:23:43Z</time>
      </trkpt>
      <trkpt lat="38.79157" lon="15.22256">
        <ele>495.696899</ele>
        <time>2013-09-11T18:23:55Z</time>
      </trkpt>
      <trkpt lat="38.79157" lon="15.22257">
        <ele>496.177734</ele>
        <time>2013-09-11T18:23:56Z</time>
      </trkpt>
      <trkpt lat="38.79164" lon="15.22273">
        <ele>491.851685</ele>
        <time>2013-09-11T18:24:12Z</time>
      </trkpt>
      <trkpt lat="38.79171" lon="15.2229">
        <ele>488.487183</ele>
        <time>2013-09-11T18:24:29Z</time>
      </trkpt>
      <trkpt lat="38.79178" lon="15.22303">
        <ele>488.00647</ele>
        <time>2013-09-11T18:24:45Z</time>
      </trkpt>
      <trkpt lat="38.79187" lon="15.22319">
        <ele>485.122437</ele>
        <time>2013-09-11T18:25:05Z</time>
      </trkpt>
      <trkpt lat="38.79195" lon="15.22331">
        <ele>481.757813</ele>
        <time>2013-09-11T18:25:18Z</time>
      </trkpt>
      <trkpt lat="38.79199" lon="15.22338">
        <ele>479.835083</ele>
        <time>2013-09-11T18:25:26Z</time>
      </trkpt>
      <trkpt lat="38.79205" lon="15.22349">
        <ele>476.470581</ele>
        <time>2013-09-11T18:25:37Z</time>
      </trkpt>
      <trkpt lat="38.79217" lon="15.2237">
        <ele>474.547974</ele>
        <time>2013-09-11T18:25:57Z</time>
      </trkpt>
      <trkpt lat="38.79223" lon="15.22381">
        <ele>475.028687</ele>
        <time>2013-09-11T18:26:14Z</time>
      </trkpt>
      <trkpt lat="38.79234" lon="15.22389">
        <ele>477.912476</ele>
        <time>2013-09-11T18:26:35Z</time>
      </trkpt>
      <trkpt lat="38.79248" lon="15.22406">
        <ele>479.835083</ele>
        <time>2013-09-11T18:26:53Z</time>
      </trkpt>
      <trkpt lat="38.79261" lon="15.22427">
        <ele>476.951294</ele>
        <time>2013-09-11T18:27:15Z</time>
      </trkpt>
      <trkpt lat="38.79269" lon="15.22438">
        <ele>476.470581</ele>
        <time>2013-09-11T18:27:30Z</time>
      </trkpt>
      <trkpt lat="38.79276" lon="15.22446">
        <ele>478.393188</ele>
        <time>2013-09-11T18:27:47Z</time>
      </trkpt>
      <trkpt lat="38.79282" lon="15.22455">
        <ele>480.315918</ele>
        <time>2013-09-11T18:28:03Z</time>
      </trkpt>
      <trkpt lat="38.79285" lon="15.22464">
        <ele>480.315918</ele>
        <time>2013-09-11T18:28:13Z</time>
      </trkpt>
      <trkpt lat="38.79293" lon="15.22476">
        <ele>479.835083</ele>
        <time>2013-09-11T18:28:34Z</time>
      </trkpt>
      <trkpt lat="38.79292" lon="15.22479">
        <ele>479.354492</ele>
        <time>2013-09-11T18:29:06Z</time>
      </trkpt>
      <trkpt lat="38.79292" lon="15.22481">
        <ele>478.393188</ele>
        <time>2013-09-11T18:29:25Z</time>
      </trkpt>
      <trkpt lat="38.79293" lon="15.2248">
        <ele>479.354492</ele>
        <time>2013-09-11T18:29:56Z</time>
      </trkpt>
      <trkpt lat="38.79293" lon="15.22477">
        <ele>477.912476</ele>
        <time>2013-09-11T18:30:58Z</time>
      </trkpt>
      <trkpt lat="38.79292" lon="15.22478">
        <ele>477.431885</ele>
        <time>2013-09-11T18:31:42Z</time>
      </trkpt>
      <trkpt lat="38.79292" lon="15.22478">
        <ele>476.951294</ele>
        <time>2013-09-11T18:32:08Z</time>
      </trkpt>
      <trkpt lat="38.79291" lon="15.22479">
        <ele>477.431885</ele>
        <time>2013-09-11T18:32:55Z</time>
      </trkpt>
      <trkpt lat="38.79291" lon="15.22479">
        <ele>477.912476</ele>
        <time>2013-09-11T18:33:18Z</time>
      </trkpt>
      <trkpt lat="38.79292" lon="15.22479">
        <ele>477.431885</ele>
        <time>2013-09-11T18:33:40Z</time>
      </trkpt>
      <trkpt lat="38.79291" lon="15.22479">
        <ele>481.277222</ele>
        <time>2013-09-11T18:33:47Z</time>
      </trkpt>
      <trkpt lat="38.79291" lon="15.22478">
        <ele>477.912476</ele>
        <time>2013-09-11T18:33:48Z</time>
      </trkpt>
      <trkpt lat="38.79293" lon="15.22478">
        <ele>477.912476</ele>
        <time>2013-09-11T18:34:10Z</time>
      </trkpt>
      <trkpt lat="38.79294" lon="15.22481">
        <ele>476.951294</ele>
        <time>2013-09-11T18:34:35Z</time>
      </trkpt>
      <trkpt lat="38.79295" lon="15.22483">
        <ele>477.431885</ele>
        <time>2013-09-11T18:34:56Z</time>
      </trkpt>
      <trkpt lat="38.79296" lon="15.22484">
        <ele>476.951294</ele>
        <time>2013-09-11T18:35:37Z</time>
      </trkpt>
      <trkpt lat="38.793" lon="15.22485">
        <ele>476.470581</ele>
        <time>2013-09-11T18:35:55Z</time>
      </trkpt>
      <trkpt lat="38.79309" lon="15.22492">
        <ele>473.58667</ele>
        <time>2013-09-11T18:36:16Z</time>
      </trkpt>
      <trkpt lat="38.7932" lon="15.22487">
        <ele>474.067261</ele>
        <time>2013-09-11T18:36:33Z</time>
      </trkpt>
      <trkpt lat="38.7934" lon="15.22493">
        <ele>473.58667</ele>
        <time>2013-09-11T18:36:56Z</time>
      </trkpt>
      <trkpt lat="38.79353" lon="15.22497">
        <ele>472.625366</ele>
        <time>2013-09-11T18:37:16Z</time>
      </trkpt>
      <trkpt lat="38.79357" lon="15.22502">
        <ele>471.66394</ele>
        <time>2013-09-11T18:37:32Z</time>
      </trkpt>
      <trkpt lat="38.79362" lon="15.22505">
        <ele>472.625366</ele>
        <time>2013-09-11T18:37:48Z</time>
      </trkpt>
      <trkpt lat="38.79365" lon="15.2251">
        <ele>474.067261</ele>
        <time>2013-09-11T18:37:55Z</time>
      </trkpt>
      <trkpt lat="38.79369" lon="15.22513">
        <ele>473.106079</ele>
        <time>2013-09-11T18:37:59Z</time>
      </trkpt>
      <trkpt lat="38.79386" lon="15.2252">
        <ele>471.18335</ele>
        <time>2013-09-11T18:38:19Z</time>
      </trkpt>
      <trkpt lat="38.79402" lon="15.22523">
        <ele>470.702637</ele>
        <time>2013-09-11T18:38:40Z</time>
      </trkpt>
      <trkpt lat="38.79414" lon="15.22527">
        <ele>469.260742</ele>
        <time>2013-09-11T18:39:01Z</time>
      </trkpt>
      <trkpt lat="38.79426" lon="15.22539">
        <ele>467.338135</ele>
        <time>2013-09-11T18:39:21Z</time>
      </trkpt>
      <trkpt lat="38.79431" lon="15.22543">
        <ele>466.376709</ele>
        <time>2013-09-11T18:39:31Z</time>
      </trkpt>
      <trkpt lat="38.79445" lon="15.22541">
        <ele>465.415527</ele>
        <time>2013-09-11T18:39:50Z</time>
      </trkpt>
      <trkpt lat="38.79453" lon="15.22541">
        <ele>466.376709</ele>
        <time>2013-09-11T18:40:08Z</time>
      </trkpt>
      <trkpt lat="38.79463" lon="15.22537">
        <ele>468.299316</ele>
        <time>2013-09-11T18:40:25Z</time>
      </trkpt>
      <trkpt lat="38.79472" lon="15.22539">
        <ele>467.338135</ele>
        <time>2013-09-11T18:40:35Z</time>
      </trkpt>
      <trkpt lat="38.79486" lon="15.22538">
        <ele>467.338135</ele>
        <time>2013-09-11T18:40:54Z</time>
      </trkpt>
      <trkpt lat="38.79497" lon="15.22534">
        <ele>468.780029</ele>
        <time>2013-09-11T18:41:12Z</time>
      </trkpt>
      <trkpt lat="38.79499" lon="15.22533">
        <ele>469.260742</ele>
        <time>2013-09-11T18:41:14Z</time>
      </trkpt>
      <trkpt lat="38.79517" lon="15.22536">
        <ele>467.338135</ele>
        <time>2013-09-11T18:41:38Z</time>
      </trkpt>
      <trkpt lat="38.79532" lon="15.22533">
        <ele>466.857422</ele>
        <time>2013-09-11T18:41:59Z</time>
      </trkpt>
      <trkpt lat="38.79548" lon="15.22525">
        <ele>465.896118</ele>
        <time>2013-09-11T18:42:21Z</time>
      </trkpt>
      <trkpt lat="38.79564" lon="15.22514">
        <ele>464.454102</ele>
        <time>2013-09-11T18:42:43Z</time>
      </trkpt>
      <trkpt lat="38.79579" lon="15.22499">
        <ele>465.896118</ele>
        <time>2013-09-11T18:43:06Z</time>
      </trkpt>
      <trkpt lat="38.79587" lon="15.22489">
        <ele>466.857422</ele>
        <time>2013-09-11T18:43:25Z</time>
      </trkpt>
      <trkpt lat="38.79594" lon="15.22476">
        <ele>469.741333</ele>
        <time>2013-09-11T18:43:46Z</time>
      </trkpt>
      <trkpt lat="38.79609" lon="15.22461">
        <ele>471.18335</ele>
        <time>2013-09-11T18:44:10Z</time>
      </trkpt>
      <trkpt lat="38.79618" lon="15.22452">
        <ele>472.144653</ele>
        <time>2013-09-11T18:44:28Z</time>
      </trkpt>
      <trkpt lat="38.79631" lon="15.22437">
        <ele>475.509277</ele>
        <time>2013-09-11T18:44:51Z</time>
      </trkpt>
      <trkpt lat="38.79645" lon="15.22434">
        <ele>474.067261</ele>
        <time>2013-09-11T18:45:12Z</time>
      </trkpt>
      <trkpt lat="38.79659" lon="15.22424">
        <ele>471.66394</ele>
        <time>2013-09-11T18:45:29Z</time>
      </trkpt>
      <trkpt lat="38.79666" lon="15.22419">
        <ele>470.702637</ele>
        <time>2013-09-11T18:45:49Z</time>
      </trkpt>
      <trkpt lat="38.79676" lon="15.22415">
        <ele>467.818726</ele>
        <time>2013-09-11T18:46:11Z</time>
      </trkpt>
      <trkpt lat="38.79686" lon="15.22417">
        <ele>463.492798</ele>
        <time>2013-09-11T18:46:32Z</time>
      </trkpt>
      <trkpt lat="38.79686" lon="15.22417">
        <ele>463.492798</ele>
        <time>2013-09-11T18:46:33Z</time>
      </trkpt>
      <trkpt lat="38.79695" lon="15.22423">
        <ele>460.128174</ele>
        <time>2013-09-11T18:46:51Z</time>
      </trkpt>
      <trkpt lat="38.79698" lon="15.22434">
        <ele>456.76355</ele>
        <time>2013-09-11T18:47:10Z</time>
      </trkpt>
      <trkpt lat="38.797" lon="15.22442">
        <ele>453.879639</ele>
        <time>2013-09-11T18:47:23Z</time>
      </trkpt>
      <trkpt lat="38.79705" lon="15.22452">
        <ele>450.515015</ele>
        <time>2013-09-11T18:47:43Z</time>
      </trkpt>
      <trkpt lat="38.79709" lon="15.22458">
        <ele>448.592407</ele>
        <time>2013-09-11T18:47:58Z</time>
      </trkpt>
      <trkpt lat="38.7971" lon="15.22465">
        <ele>445.227661</ele>
        <time>2013-09-11T18:48:08Z</time>
      </trkpt>
      <trkpt lat="38.79715" lon="15.22471">
        <ele>442.343872</ele>
        <time>2013-09-11T18:48:22Z</time>
      </trkpt>
      <trkpt lat="38.79721" lon="15.22474">
        <ele>439.94043</ele>
        <time>2013-09-11T18:48:38Z</time>
      </trkpt>
      <trkpt lat="38.79725" lon="15.22481">
        <ele>436.575928</ele>
        <time>2013-09-11T18:48:52Z</time>
      </trkpt>
      <trkpt lat="38.79725" lon="15.22482">
        <ele>436.575928</ele>
        <time>2013-09-11T18:48:53Z</time>
      </trkpt>
      <trkpt lat="38.79728" lon="15.22493">
        <ele>433.211304</ele>
        <time>2013-09-11T18:49:09Z</time>
      </trkpt>
      <trkpt lat="38.79729" lon="15.22505">
        <ele>430.327271</ele>
        <time>2013-09-11T18:49:24Z</time>
      </trkpt>
      <trkpt lat="38.7973" lon="15.2251">
        <ele>428.885376</ele>
        <time>2013-09-11T18:49:30Z</time>
      </trkpt>
      <trkpt lat="38.79731" lon="15.22514">
        <ele>426.962769</ele>
        <time>2013-09-11T18:49:48Z</time>
      </trkpt>
      <trkpt lat="38.79732" lon="15.22521">
        <ele>425.520752</ele>
        <time>2013-09-11T18:50:06Z</time>
      </trkpt>
      <trkpt lat="38.79735" lon="15.22526">
        <ele>422.636719</ele>
        <time>2013-09-11T18:50:20Z</time>
      </trkpt>
      <trkpt lat="38.79738" lon="15.22533">
        <ele>419.272217</ele>
        <time>2013-09-11T18:50:33Z</time>
      </trkpt>
      <trkpt lat="38.79743" lon="15.22536">
        <ele>416.388184</ele>
        <time>2013-09-11T18:50:46Z</time>
      </trkpt>
      <trkpt lat="38.79747" lon="15.22538">
        <ele>413.02356</ele>
        <time>2013-09-11T18:50:56Z</time>
      </trkpt>
      <trkpt lat="38.79748" lon="15.22541">
        <ele>411.100952</ele>
        <time>2013-09-11T18:51:09Z</time>
      </trkpt>
      <trkpt lat="38.79755" lon="15.22544">
        <ele>407.736328</ele>
        <time>2013-09-11T18:51:23Z</time>
      </trkpt>
      <trkpt lat="38.79757" lon="15.22551">
        <ele>404.852295</ele>
        <time>2013-09-11T18:51:35Z</time>
      </trkpt>
      <trkpt lat="38.79758" lon="15.22563">
        <ele>401.487793</ele>
        <time>2013-09-11T18:51:49Z</time>
      </trkpt>
      <trkpt lat="38.79758" lon="15.2257">
        <ele>398.60376</ele>
        <time>2013-09-11T18:52:00Z</time>
      </trkpt>
      <trkpt lat="38.79761" lon="15.22577">
        <ele>395.239136</ele>
        <time>2013-09-11T18:52:11Z</time>
      </trkpt>
      <trkpt lat="38.79768" lon="15.22581">
        <ele>392.835938</ele>
        <time>2013-09-11T18:52:27Z</time>
      </trkpt>
      <trkpt lat="38.79773" lon="15.22582">
        <ele>389.951904</ele>
        <time>2013-09-11T18:52:34Z</time>
      </trkpt>
      <trkpt lat="38.79775" lon="15.22588">
        <ele>387.067993</ele>
        <time>2013-09-11T18:52:46Z</time>
      </trkpt>
      <trkpt lat="38.79776" lon="15.22597">
        <ele>383.703247</ele>
        <time>2013-09-11T18:52:57Z</time>
      </trkpt>
      <trkpt lat="38.79776" lon="15.22598">
        <ele>383.222656</ele>
        <time>2013-09-11T18:52:58Z</time>
      </trkpt>
      <trkpt lat="38.79776" lon="15.2261">
        <ele>380.338745</ele>
        <time>2013-09-11T18:53:12Z</time>
      </trkpt>
      <trkpt lat="38.79779" lon="15.22616">
        <ele>376.974243</ele>
        <time>2013-09-11T18:53:28Z</time>
      </trkpt>
      <trkpt lat="38.7978" lon="15.2262">
        <ele>375.532104</ele>
        <time>2013-09-11T18:53:36Z</time>
      </trkpt>
      <trkpt lat="38.79782" lon="15.22624">
        <ele>373.128906</ele>
        <time>2013-09-11T18:53:44Z</time>
      </trkpt>
      <trkpt lat="38.79783" lon="15.22627">
        <ele>371.68689</ele>
        <time>2013-09-11T18:53:49Z</time>
      </trkpt>
      <trkpt lat="38.79785" lon="15.22634">
        <ele>368.322266</ele>
        <time>2013-09-11T18:54:01Z</time>
      </trkpt>
      <trkpt lat="38.7979" lon="15.22644">
        <ele>365.438354</ele>
        <time>2013-09-11T18:54:16Z</time>
      </trkpt>
      <trkpt lat="38.79791" lon="15.22649">
        <ele>362.07373</ele>
        <time>2013-09-11T18:54:25Z</time>
      </trkpt>
      <trkpt lat="38.79794" lon="15.22658">
        <ele>358.708984</ele>
        <time>2013-09-11T18:54:39Z</time>
      </trkpt>
      <trkpt lat="38.79795" lon="15.22668">
        <ele>355.825195</ele>
        <time>2013-09-11T18:54:55Z</time>
      </trkpt>
      <trkpt lat="38.798" lon="15.2267">
        <ele>352.460571</ele>
        <time>2013-09-11T18:55:05Z</time>
      </trkpt>
      <trkpt lat="38.79805" lon="15.22681">
        <ele>349.576538</ele>
        <time>2013-09-11T18:55:21Z</time>
      </trkpt>
      <trkpt lat="38.79807" lon="15.22685">
        <ele>346.692627</ele>
        <time>2013-09-11T18:55:31Z</time>
      </trkpt>
      <trkpt lat="38.79811" lon="15.22694">
        <ele>343.327881</ele>
        <time>2013-09-11T18:55:47Z</time>
      </trkpt>
      <trkpt lat="38.79811" lon="15.22696">
        <ele>342.366699</ele>
        <time>2013-09-11T18:55:49Z</time>
      </trkpt>
      <trkpt lat="38.79819" lon="15.22707">
        <ele>338.521484</ele>
        <time>2013-09-11T18:56:06Z</time>
      </trkpt>
      <trkpt lat="38.79822" lon="15.2271">
        <ele>337.079468</ele>
        <time>2013-09-11T18:56:13Z</time>
      </trkpt>
      <trkpt lat="38.79825" lon="15.22719">
        <ele>333.714722</ele>
        <time>2013-09-11T18:56:25Z</time>
      </trkpt>
      <trkpt lat="38.79829" lon="15.22726">
        <ele>330.35022</ele>
        <time>2013-09-11T18:56:36Z</time>
      </trkpt>
      <trkpt lat="38.79826" lon="15.22736">
        <ele>326.985596</ele>
        <time>2013-09-11T18:56:50Z</time>
      </trkpt>
      <trkpt lat="38.79829" lon="15.2274">
        <ele>324.582275</ele>
        <time>2013-09-11T18:57:00Z</time>
      </trkpt>
      <trkpt lat="38.79834" lon="15.22743">
        <ele>322.178955</ele>
        <time>2013-09-11T18:57:10Z</time>
      </trkpt>
      <trkpt lat="38.79838" lon="15.22749">
        <ele>319.295044</ele>
        <time>2013-09-11T18:57:21Z</time>
      </trkpt>
      <trkpt lat="38.79838" lon="15.2275">
        <ele>319.295044</ele>
        <time>2013-09-11T18:57:22Z</time>
      </trkpt>
      <trkpt lat="38.79842" lon="15.22763">
        <ele>315.93042</ele>
        <time>2013-09-11T18:57:41Z</time>
      </trkpt>
      <trkpt lat="38.79845" lon="15.22769">
        <ele>313.046509</ele>
        <time>2013-09-11T18:57:51Z</time>
      </trkpt>
      <trkpt lat="38.79845" lon="15.22772">
        <ele>312.085205</ele>
        <time>2013-09-11T18:57:55Z</time>
      </trkpt>
      <trkpt lat="38.79849" lon="15.22782">
        <ele>308.720459</ele>
        <time>2013-09-11T18:58:11Z</time>
      </trkpt>
      <trkpt lat="38.79854" lon="15.22791">
        <ele>305.83667</ele>
        <time>2013-09-11T18:58:27Z</time>
      </trkpt>
      <trkpt lat="38.79858" lon="15.22799">
        <ele>302.471924</ele>
        <time>2013-09-11T18:58:39Z</time>
      </trkpt>
      <trkpt lat="38.79861" lon="15.22809">
        <ele>299.1073</ele>
        <time>2013-09-11T18:58:50Z</time>
      </trkpt>
      <trkpt lat="38.79861" lon="15.2281">
        <ele>298.146118</ele>
        <time>2013-09-11T18:58:52Z</time>
      </trkpt>
      <trkpt lat="38.79865" lon="15.2282">
        <ele>294.781372</ele>
        <time>2013-09-11T18:59:04Z</time>
      </trkpt>
      <trkpt lat="38.79869" lon="15.22829">
        <ele>291.897461</ele>
        <time>2013-09-11T18:59:16Z</time>
      </trkpt>
      <trkpt lat="38.7987" lon="15.22832">
        <ele>289.974854</ele>
        <time>2013-09-11T18:59:21Z</time>
      </trkpt>
      <trkpt lat="38.79874" lon="15.22841">
        <ele>288.052246</ele>
        <time>2013-09-11T18:59:37Z</time>
      </trkpt>
      <trkpt lat="38.79877" lon="15.22849">
        <ele>284.687622</ele>
        <time>2013-09-11T18:59:53Z</time>
      </trkpt>
      <trkpt lat="38.79878" lon="15.22856">
        <ele>281.322998</ele>
        <time>2013-09-11T19:00:03Z</time>
      </trkpt>
      <trkpt lat="38.79878" lon="15.22858">
        <ele>280.361694</ele>
        <time>2013-09-11T19:00:05Z</time>
      </trkpt>
      <trkpt lat="38.7988" lon="15.22868">
        <ele>277.477661</ele>
        <time>2013-09-11T19:00:25Z</time>
      </trkpt>
      <trkpt lat="38.79882" lon="15.22875">
        <ele>274.59375</ele>
        <time>2013-09-11T19:00:39Z</time>
      </trkpt>
      <trkpt lat="38.79882" lon="15.22882">
        <ele>271.229126</ele>
        <time>2013-09-11T19:00:50Z</time>
      </trkpt>
      <trkpt lat="38.79885" lon="15.22889">
        <ele>267.383911</ele>
        <time>2013-09-11T19:01:01Z</time>
      </trkpt>
      <trkpt lat="38.79888" lon="15.22899">
        <ele>264.499878</ele>
        <time>2013-09-11T19:01:15Z</time>
      </trkpt>
      <trkpt lat="38.79892" lon="15.22907">
        <ele>260.654541</ele>
        <time>2013-09-11T19:01:26Z</time>
      </trkpt>
      <trkpt lat="38.79894" lon="15.22917">
        <ele>257.290039</ele>
        <time>2013-09-11T19:01:38Z</time>
      </trkpt>
      <trkpt lat="38.79897" lon="15.22926">
        <ele>253.925415</ele>
        <time>2013-09-11T19:01:49Z</time>
      </trkpt>
      <trkpt lat="38.79897" lon="15.22927">
        <ele>253.444702</ele>
        <time>2013-09-11T19:01:50Z</time>
      </trkpt>
      <trkpt lat="38.79901" lon="15.22935">
        <ele>250.560791</ele>
        <time>2013-09-11T19:02:01Z</time>
      </trkpt>
      <trkpt lat="38.79905" lon="15.22945">
        <ele>247.196045</ele>
        <time>2013-09-11T19:02:15Z</time>
      </trkpt>
      <trkpt lat="38.7991" lon="15.22953">
        <ele>244.312256</ele>
        <time>2013-09-11T19:02:26Z</time>
      </trkpt>
      <trkpt lat="38.79913" lon="15.22962">
        <ele>240.947632</ele>
        <time>2013-09-11T19:02:37Z</time>
      </trkpt>
      <trkpt lat="38.79919" lon="15.22968">
        <ele>237.582886</ele>
        <time>2013-09-11T19:02:55Z</time>
      </trkpt>
      <trkpt lat="38.79926" lon="15.22971">
        <ele>234.218384</ele>
        <time>2013-09-11T19:03:06Z</time>
      </trkpt>
      <trkpt lat="38.79932" lon="15.2298">
        <ele>231.814941</ele>
        <time>2013-09-11T19:03:24Z</time>
      </trkpt>
      <trkpt lat="38.7994" lon="15.22977">
        <ele>228.931152</ele>
        <time>2013-09-11T19:03:38Z</time>
      </trkpt>
      <trkpt lat="38.79946" lon="15.2298">
        <ele>225.566528</ele>
        <time>2013-09-11T19:03:50Z</time>
      </trkpt>
      <trkpt lat="38.79948" lon="15.22983">
        <ele>223.643799</ele>
        <time>2013-09-11T19:03:55Z</time>
      </trkpt>
      <trkpt lat="38.79952" lon="15.22995">
        <ele>222.201782</ele>
        <time>2013-09-11T19:04:12Z</time>
      </trkpt>
      <trkpt lat="38.79955" lon="15.22996">
        <ele>220.279175</ele>
        <time>2013-09-11T19:04:15Z</time>
      </trkpt>
      <trkpt lat="38.79958" lon="15.23008">
        <ele>216.43396</ele>
        <time>2013-09-11T19:04:25Z</time>
      </trkpt>
      <trkpt lat="38.7996" lon="15.23019">
        <ele>213.550049</ele>
        <time>2013-09-11T19:04:35Z</time>
      </trkpt>
      <trkpt lat="38.79963" lon="15.23033">
        <ele>210.185425</ele>
        <time>2013-09-11T19:04:46Z</time>
      </trkpt>
      <trkpt lat="38.79963" lon="15.23051">
        <ele>206.820679</ele>
        <time>2013-09-11T19:05:06Z</time>
      </trkpt>
      <trkpt lat="38.79963" lon="15.23065">
        <ele>204.898071</ele>
        <time>2013-09-11T19:05:27Z</time>
      </trkpt>
      <trkpt lat="38.79964" lon="15.23075">
        <ele>202.014282</ele>
        <time>2013-09-11T19:05:40Z</time>
      </trkpt>
      <trkpt lat="38.79965" lon="15.23081">
        <ele>201.052856</ele>
        <time>2013-09-11T19:05:47Z</time>
      </trkpt>
      <trkpt lat="38.79964" lon="15.23095">
        <ele>199.130127</ele>
        <time>2013-09-11T19:05:57Z</time>
      </trkpt>
      <trkpt lat="38.79955" lon="15.23107">
        <ele>197.20752</ele>
        <time>2013-09-11T19:06:15Z</time>
      </trkpt>
      <trkpt lat="38.79951" lon="15.23113">
        <ele>196.246338</ele>
        <time>2013-09-11T19:06:32Z</time>
      </trkpt>
      <trkpt lat="38.79945" lon="15.23117">
        <ele>194.32373</ele>
        <time>2013-09-11T19:06:49Z</time>
      </trkpt>
      <trkpt lat="38.79951" lon="15.23124">
        <ele>190.478394</ele>
        <time>2013-09-11T19:07:03Z</time>
      </trkpt>
      <trkpt lat="38.79958" lon="15.23135">
        <ele>187.59436</ele>
        <time>2013-09-11T19:07:20Z</time>
      </trkpt>
      <trkpt lat="38.7996" lon="15.23139">
        <ele>186.152466</ele>
        <time>2013-09-11T19:07:25Z</time>
      </trkpt>
      <trkpt lat="38.79965" lon="15.23149">
        <ele>183.268433</ele>
        <time>2013-09-11T19:07:43Z</time>
      </trkpt>
      <trkpt lat="38.79974" lon="15.23157">
        <ele>180.384521</ele>
        <time>2013-09-11T19:08:02Z</time>
      </trkpt>
      <trkpt lat="38.79974" lon="15.23167">
        <ele>178.461914</ele>
        <time>2013-09-11T19:08:19Z</time>
      </trkpt>
      <trkpt lat="38.79977" lon="15.23172">
        <ele>176.539307</ele>
        <time>2013-09-11T19:08:35Z</time>
      </trkpt>
      <trkpt lat="38.79988" lon="15.23177">
        <ele>174.135864</ele>
        <time>2013-09-11T19:08:53Z</time>
      </trkpt>
      <trkpt lat="38.79995" lon="15.23176">
        <ele>172.213257</ele>
        <time>2013-09-11T19:09:09Z</time>
      </trkpt>
      <trkpt lat="38.79996" lon="15.23182">
        <ele>170.290649</ele>
        <time>2013-09-11T19:09:23Z</time>
      </trkpt>
      <trkpt lat="38.79996" lon="15.23186">
        <ele>168.848755</ele>
        <time>2013-09-11T19:09:28Z</time>
      </trkpt>
      <trkpt lat="38.80003" lon="15.23193">
        <ele>166.445313</ele>
        <time>2013-09-11T19:09:45Z</time>
      </trkpt>
      <trkpt lat="38.80004" lon="15.23204">
        <ele>163.080811</ele>
        <time>2013-09-11T19:09:58Z</time>
      </trkpt>
      <trkpt lat="38.80002" lon="15.23213">
        <ele>160.196899</ele>
        <time>2013-09-11T19:10:15Z</time>
      </trkpt>
      <trkpt lat="38.8001" lon="15.23217">
        <ele>157.312866</ele>
        <time>2013-09-11T19:10:31Z</time>
      </trkpt>
      <trkpt lat="38.8002" lon="15.23222">
        <ele>153.948364</ele>
        <time>2013-09-11T19:10:48Z</time>
      </trkpt>
      <trkpt lat="38.8002" lon="15.23235">
        <ele>151.544922</ele>
        <time>2013-09-11T19:11:05Z</time>
      </trkpt>
      <trkpt lat="38.80014" lon="15.23245">
        <ele>149.622314</ele>
        <time>2013-09-11T19:11:23Z</time>
      </trkpt>
      <trkpt lat="38.80015" lon="15.23256">
        <ele>146.738403</ele>
        <time>2013-09-11T19:11:41Z</time>
      </trkpt>
      <trkpt lat="38.80019" lon="15.2326">
        <ele>145.296387</ele>
        <time>2013-09-11T19:11:45Z</time>
      </trkpt>
      <trkpt lat="38.80033" lon="15.2326">
        <ele>143.85437</ele>
        <time>2013-09-11T19:12:03Z</time>
      </trkpt>
      <trkpt lat="38.80042" lon="15.23262">
        <ele>140.489868</ele>
        <time>2013-09-11T19:12:16Z</time>
      </trkpt>
      <trkpt lat="38.80052" lon="15.23262">
        <ele>138.086548</ele>
        <time>2013-09-11T19:12:35Z</time>
      </trkpt>
      <trkpt lat="38.80055" lon="15.23271">
        <ele>134.721924</ele>
        <time>2013-09-11T19:12:48Z</time>
      </trkpt>
      <trkpt lat="38.80062" lon="15.23279">
        <ele>131.3573</ele>
        <time>2013-09-11T19:13:01Z</time>
      </trkpt>
      <trkpt lat="38.80065" lon="15.23284">
        <ele>128.954102</ele>
        <time>2013-09-11T19:13:08Z</time>
      </trkpt>
      <trkpt lat="38.80072" lon="15.23295">
        <ele>127.031372</ele>
        <time>2013-09-11T19:13:21Z</time>
      </trkpt>
      <trkpt lat="38.80078" lon="15.23301">
        <ele>126.069946</ele>
        <time>2013-09-11T19:13:28Z</time>
      </trkpt>
      <trkpt lat="38.80095" lon="15.23296">
        <ele>125.589355</ele>
        <time>2013-09-11T19:13:42Z</time>
      </trkpt>
      <trkpt lat="38.80099" lon="15.23282">
        <ele>123.186157</ele>
        <time>2013-09-11T19:13:56Z</time>
      </trkpt>
      <trkpt lat="38.80103" lon="15.23272">
        <ele>121.26355</ele>
        <time>2013-09-11T19:14:08Z</time>
      </trkpt>
      <trkpt lat="38.80113" lon="15.23287">
        <ele>118.379395</ele>
        <time>2013-09-11T19:14:28Z</time>
      </trkpt>
      <trkpt lat="38.80113" lon="15.2329">
        <ele>118.379395</ele>
        <time>2013-09-11T19:14:48Z</time>
      </trkpt>
      <trkpt lat="38.80114" lon="15.2329">
        <ele>117.898804</ele>
        <time>2013-09-11T19:15:54Z</time>
      </trkpt>
      <trkpt lat="38.80112" lon="15.2329">
        <ele>117.418213</ele>
        <time>2013-09-11T19:16:07Z</time>
      </trkpt>
      <trkpt lat="38.80114" lon="15.2329">
        <ele>116.9375</ele>
        <time>2013-09-11T19:17:00Z</time>
      </trkpt>
      <trkpt lat="38.80115" lon="15.23294">
        <ele>116.456787</ele>
        <time>2013-09-11T19:17:26Z</time>
      </trkpt>
      <trkpt lat="38.80117" lon="15.23296">
        <ele>115.976196</ele>
        <time>2013-09-11T19:17:53Z</time>
      </trkpt>
      <trkpt lat="38.80121" lon="15.23306">
        <ele>115.014893</ele>
        <time>2013-09-11T19:18:16Z</time>
      </trkpt>
      <trkpt lat="38.80126" lon="15.23327">
        <ele>112.130981</ele>
        <time>2013-09-11T19:18:35Z</time>
      </trkpt>
      <trkpt lat="38.80128" lon="15.23351">
        <ele>108.766235</ele>
        <time>2013-09-11T19:18:55Z</time>
      </trkpt>
      <trkpt lat="38.80126" lon="15.23367">
        <ele>105.882446</ele>
        <time>2013-09-11T19:19:09Z</time>
      </trkpt>
      <trkpt lat="38.80125" lon="15.2337">
        <ele>105.401733</ele>
        <time>2013-09-11T19:19:11Z</time>
      </trkpt>
      <trkpt lat="38.80126" lon="15.23376">
        <ele>105.401733</ele>
        <time>2013-09-11T19:19:15Z</time>
      </trkpt>
      <trkpt lat="38.80132" lon="15.23396">
        <ele>100.595093</ele>
        <time>2013-09-11T19:19:30Z</time>
      </trkpt>
      <trkpt lat="38.80138" lon="15.23417">
        <ele>97.711182</ele>
        <time>2013-09-11T19:19:47Z</time>
      </trkpt>
      <trkpt lat="38.80143" lon="15.23434">
        <ele>94.346558</ele>
        <time>2013-09-11T19:20:01Z</time>
      </trkpt>
      <trkpt lat="38.80153" lon="15.23458">
        <ele>91.943237</ele>
        <time>2013-09-11T19:20:20Z</time>
      </trkpt>
      <trkpt lat="38.80165" lon="15.23485">
        <ele>88.578735</ele>
        <time>2013-09-11T19:20:41Z</time>
      </trkpt>
      <trkpt lat="38.80174" lon="15.23511">
        <ele>85.69458</ele>
        <time>2013-09-11T19:21:00Z</time>
      </trkpt>
      <trkpt lat="38.80183" lon="15.2354">
        <ele>83.291382</ele>
        <time>2013-09-11T19:21:23Z</time>
      </trkpt>
      <trkpt lat="38.80196" lon="15.23568">
        <ele>81.368774</ele>
        <time>2013-09-11T19:21:44Z</time>
      </trkpt>
      <trkpt lat="38.80206" lon="15.23596">
        <ele>79.446045</ele>
        <time>2013-09-11T19:22:05Z</time>
      </trkpt>
      <trkpt lat="38.80218" lon="15.23625">
        <ele>76.562134</ele>
        <time>2013-09-11T19:22:27Z</time>
      </trkpt>
      <trkpt lat="38.80228" lon="15.23649">
        <ele>74.158813</ele>
        <time>2013-09-11T19:22:46Z</time>
      </trkpt>
      <trkpt lat="38.80241" lon="15.23679">
        <ele>72.236206</ele>
        <time>2013-09-11T19:23:10Z</time>
      </trkpt>
      <trkpt lat="38.80242" lon="15.2368">
        <ele>72.236206</ele>
        <time>2013-09-11T19:23:12Z</time>
      </trkpt>
      <trkpt lat="38.80251" lon="15.23703">
        <ele>71.755493</ele>
        <time>2013-09-11T19:23:31Z</time>
      </trkpt>
      <trkpt lat="38.80256" lon="15.23731">
        <ele>70.313477</ele>
        <time>2013-09-11T19:23:52Z</time>
      </trkpt>
      <trkpt lat="38.80263" lon="15.23757">
        <ele>67.910278</ele>
        <time>2013-09-11T19:24:12Z</time>
      </trkpt>
      <trkpt lat="38.80269" lon="15.23774">
        <ele>65.026367</ele>
        <time>2013-09-11T19:24:33Z</time>
      </trkpt>
      <trkpt lat="38.80274" lon="15.2378">
        <ele>63.584351</ele>
        <time>2013-09-11T19:25:06Z</time>
      </trkpt>
      <trkpt lat="38.80279" lon="15.23793">
        <ele>60.700317</ele>
        <time>2013-09-11T19:25:20Z</time>
      </trkpt>
      <trkpt lat="38.80277" lon="15.23795">
        <ele>59.739136</ele>
        <time>2013-09-11T19:25:25Z</time>
      </trkpt>
      <trkpt lat="38.80259" lon="15.23799">
        <ele>57.335815</ele>
        <time>2013-09-11T19:25:43Z</time>
      </trkpt>
      <trkpt lat="38.80243" lon="15.23805">
        <ele>54.451782</ele>
        <time>2013-09-11T19:26:01Z</time>
      </trkpt>
      <trkpt lat="38.80228" lon="15.23811">
        <ele>52.048584</ele>
        <time>2013-09-11T19:26:18Z</time>
      </trkpt>
      <trkpt lat="38.80206" lon="15.23816">
        <ele>50.125977</ele>
        <time>2013-09-11T19:26:38Z</time>
      </trkpt>
      <trkpt lat="38.80183" lon="15.23819">
        <ele>47.722534</ele>
        <time>2013-09-11T19:26:59Z</time>
      </trkpt>
      <trkpt lat="38.80175" lon="15.23816">
        <ele>46.76123</ele>
        <time>2013-09-11T19:27:14Z</time>
      </trkpt>
      <trkpt lat="38.80175" lon="15.23816">
        <ele>47.722534</ele>
        <time>2013-09-11T19:27:38Z</time>
      </trkpt>
      <trkpt lat="38.80175" lon="15.23816">
        <ele>49.164551</ele>
        <time>2013-09-11T19:27:40Z</time>
      </trkpt>
    </trkseg>
  </trk>
</gpx>